Observation data for Amarillo 7 South Southeast on 02/24/2021      Previous  Date  Next       Current Mesonet Observations  Soil Data  Daily Summary Page  Observations in Plain Language
KAM1 240600Z 32020G26KT 12/M06 A2986 RMK A01 T01191058  RH  029%=      5-min Rain = 0
KAM1 240601Z 32021KT 12/M06 A2986 RMK A01 T01171058  RH  029%=      5-min Rain = 0
KAM1 240602Z 33023G30KT 12/M06 A2986 RMK A01 T01161058  RH  029%=      5-min Rain = 0
KAM1 240603Z 33021G28KT 12/M06 A2986 RMK A01 T01161057  RH  029%=      5-min Rain = 0
KAM1 240604Z 33026KT 11/M06 A2986 RMK A01 T01141057  RH  030%=      5-min Rain = 0
KAM1 240605Z 33021G30KT 11/M06 A2986 RMK A01 T01131056  RH  030%=      5-min Rain = 0
KAM1 240606Z 33022KT 11/M06 A2986 RMK A01 T01111055  RH  031%=      5-min Rain = 0
KAM1 240607Z 33023G28KT 11/M06 A2986 RMK A01 T01091056  RH  031%=      5-min Rain = 0
KAM1 240608Z 33023KT 11/M06 A2986 RMK A01 T01081055  RH  031%=      5-min Rain = 0
KAM1 240609Z 33019KT 11/M05 A2987 RMK A01 T01071054  RH  032%=      5-min Rain = 0
KAM1 240610Z 33022KT 11/M06 A2986 RMK A01 T01051055  RH  032%=      5-min Rain = 0
KAM1 240611Z 33020KT 11/M05 A2987 RMK A01 T01051054  RH  032%=      5-min Rain = 0
KAM1 240612Z 33021KT 10/M05 A2987 RMK A01 T01041054  RH  032%=      5-min Rain = 0
KAM1 240613Z 33019KT 10/M05 A2987 RMK A01 T01041053  RH  033%=      5-min Rain = 0
KAM1 240614Z 33022G29KT 10/M05 A2987 RMK A01 T01031053  RH  033%=      5-min Rain = 0
KAM1 240615Z 32021KT 10/M05 A2987 RMK A01 T01021052  RH  033%=      5-min Rain = 0
KAM1 240616Z 33019KT 10/M05 A2987 RMK A01 T01011051  RH  034%=      5-min Rain = 0
KAM1 240617Z 33018KT 10/M05 A2987 RMK A01 T01001051  RH  034%=      5-min Rain = 0
KAM1 240618Z 33018G24KT 10/M05 A2988 RMK A01 T00991051  RH  034%=      5-min Rain = 0
KAM1 240619Z 33020KT 10/M05 A2988 RMK A01 T00981050  RH  035%=      5-min Rain = 0
KAM1 240620Z 33017G23KT 10/M05 A2988 RMK A01 T00971050  RH  035%=      5-min Rain = 0
KAM1 240621Z 33017G22KT 10/M05 A2988 RMK A01 T00971049  RH  035%=      5-min Rain = 0
KAM1 240622Z 33018KT 10/M05 A2988 RMK A01 T00961049  RH  036%=      5-min Rain = 0
KAM1 240623Z 33016G23KT 10/M05 A2989 RMK A01 T00951049  RH  036%=      5-min Rain = 0
KAM1 240624Z 34020KT 10/M05 A2988 RMK A01 T00951049  RH  036%=      5-min Rain = 0
KAM1 240625Z 34017KT 10/M05 A2989 RMK A01 T00951048  RH  036%=      5-min Rain = 0
KAM1 240626Z 33019KT 09/M05 A2989 RMK A01 T00941048  RH  036%=      5-min Rain = 0
KAM1 240627Z 34020G25KT 09/M05 A2989 RMK A01 T00941048  RH  036%=      5-min Rain = 0
KAM1 240628Z 33018KT 09/M05 A2989 RMK A01 T00941047  RH  037%=      5-min Rain = 0
KAM1 240629Z 34018KT 09/M05 A2989 RMK A01 T00931047  RH  037%=      5-min Rain = 0
KAM1 240630Z 34020KT 09/M05 A2989 RMK A01 T00931046  RH  037%=      5-min Rain = 0
KAM1 240631Z 34019KT 09/M05 A299 RMK A01 T00931047  RH  037%=      5-min Rain = 0
KAM1 240632Z 34019KT 09/M05 A299 RMK A01 T00931046  RH  037%=      5-min Rain = 0
KAM1 240633Z 34016KT 09/M05 A299 RMK A01 T00921046  RH  037%=      5-min Rain = 0
KAM1 240634Z 34017G23KT 09/M05 A299 RMK A01 T00911046  RH  037%=      5-min Rain = 0
KAM1 240635Z 35018KT 09/M05 A299 RMK A01 T00901046  RH  038%=      5-min Rain = 0
KAM1 240636Z 35016G22KT 09/M05 A299 RMK A01 T00901045  RH  038%=      5-min Rain = 0
KAM1 240637Z 35020G25KT 09/M05 A299 RMK A01 T00891045  RH  038%=      5-min Rain = 0
KAM1 240638Z 36020KT 09/M04 A2991 RMK A01 T00891044  RH  039%=      5-min Rain = 0
KAM1 240639Z 35022G28KT 09/M04 A299 RMK A01 T00891044  RH  039%=      5-min Rain = 0
KAM1 240640Z 36021G26KT 09/M04 A2991 RMK A01 T00891043  RH  039%=      5-min Rain = 0
KAM1 240641Z 36021G29KT 09/M04 A2991 RMK A01 T00891043  RH  039%=      5-min Rain = 0
KAM1 240642Z 36021G26KT 09/M04 A2991 RMK A01 T00891043  RH  039%=      5-min Rain = 0
KAM1 240643Z 36019KT 09/M04 A2991 RMK A01 T00891043  RH  039%=      5-min Rain = 0
KAM1 240644Z 36019G24KT 09/M04 A2991 RMK A01 T00881043  RH  039%=      5-min Rain = 0
KAM1 240645Z 00019G25KT 09/M04 A2992 RMK A01 T00871043  RH  040%=      5-min Rain = 0
KAM1 240646Z 00017KT 09/M04 A2992 RMK A01 T00861042  RH  040%=      5-min Rain = 0
KAM1 240647Z 36018KT 09/M04 A2992 RMK A01 T00861042  RH  040%=      5-min Rain = 0
KAM1 240648Z 36019KT 09/M04 A2992 RMK A01 T00851042  RH  040%=      5-min Rain = 0
KAM1 240649Z 36017G22KT 09/M04 A2993 RMK A01 T00851042  RH  040%=      5-min Rain = 0
KAM1 240650Z 36018KT 09/M04 A2993 RMK A01 T00851042  RH  040%=      5-min Rain = 0
KAM1 240651Z 35018KT 08/M04 A2993 RMK A01 T00841042  RH  040%=      5-min Rain = 0
KAM1 240652Z 36017KT 08/M04 A2993 RMK A01 T00841042  RH  041%=      5-min Rain = 0
KAM1 240653Z 36015KT 08/M04 A2993 RMK A01 T00841042  RH  041%=      5-min Rain = 0
KAM1 240654Z 36015KT 08/M04 A2993 RMK A01 T00831042  RH  041%=      5-min Rain = 0
KAM1 240655Z 00015KT 08/M04 A2993 RMK A01 T00821042  RH  041%=      5-min Rain = 0
KAM1 240656Z 36017KT 08/M04 A2993 RMK A01 T00811042  RH  041%=      5-min Rain = 0
KAM1 240657Z 36016KT 08/M04 A2993 RMK A01 T00811042  RH  042%=      5-min Rain = 0
KAM1 240658Z 36017KT 08/M04 A2994 RMK A01 T00821042  RH  041%=      5-min Rain = 0
KAM1 240659Z 36017KT 08/M04 A2993 RMK A01 T00811042  RH  042%=      5-min Rain = 0
KAM1 240700Z 36017KT 08/M04 A2994 RMK A01 T00811042  RH  042%=      5-min Rain = 0
KAM1 240701Z 36015KT 08/M04 A2994 RMK A01 T00811042  RH  042%=      5-min Rain = 0
KAM1 240702Z 36016KT 08/M04 A2994 RMK A01 T00801042  RH  042%=      5-min Rain = 0
KAM1 240703Z 36018KT 08/M04 A2994 RMK A01 T00791042  RH  042%=      5-min Rain = 0
KAM1 240704Z 35016KT 08/M04 A2994 RMK A01 T00791042  RH  042%=      5-min Rain = 0
KAM1 240705Z 36018KT 08/M04 A2994 RMK A01 T00791041  RH  042%=      5-min Rain = 0
KAM1 240706Z 00019KT 08/M04 A2994 RMK A01 T00791041  RH  042%=      5-min Rain = 0
KAM1 240707Z 36016G21KT 08/M04 A2994 RMK A01 T00791041  RH  042%=      5-min Rain = 0
KAM1 240708Z 36016KT 08/M04 A2994 RMK A01 T00781041  RH  042%=      5-min Rain = 0
KAM1 240709Z 36017KT 08/M04 A2994 RMK A01 T00771042  RH  043%=      5-min Rain = 0
KAM1 240710Z 36016KT 08/M04 A2994 RMK A01 T00771042  RH  043%=      5-min Rain = 0
KAM1 240711Z 35016KT 08/M04 A2994 RMK A01 T00781041  RH  043%=      5-min Rain = 0
KAM1 240712Z 36017G22KT 08/M04 A2995 RMK A01 T00771042  RH  043%=      5-min Rain = 0
KAM1 240713Z 36017G23KT 08/M04 A2995 RMK A01 T00771042  RH  043%=      5-min Rain = 0
KAM1 240714Z 36018KT 08/M04 A2995 RMK A01 T00771042  RH  043%=      5-min Rain = 0
KAM1 240715Z 00016KT 08/M04 A2995 RMK A01 T00771042  RH  043%=      5-min Rain = 0
KAM1 240716Z 01016G22KT 08/M04 A2995 RMK A01 T00771042  RH  043%=      5-min Rain = 0
KAM1 240717Z 01018G24KT 08/M04 A2995 RMK A01 T00761042  RH  043%=      5-min Rain = 0
KAM1 240718Z 00016KT 08/M04 A2995 RMK A01 T00751043  RH  043%=      5-min Rain = 0
KAM1 240719Z 00018KT 08/M04 A2996 RMK A01 T00761042  RH  043%=      5-min Rain = 0
KAM1 240720Z 01018KT 08/M04 A2996 RMK A01 T00751043  RH  043%=      5-min Rain = 0
KAM1 240721Z 00018G23KT 08/M04 A2996 RMK A01 T00751043  RH  043%=      5-min Rain = 0
KAM1 240722Z 01019KT 08/M04 A2996 RMK A01 T00751043  RH  043%=      5-min Rain = 0
KAM1 240723Z 01018KT 08/M04 A2996 RMK A01 T00751043  RH  043%=      5-min Rain = 0
KAM1 240724Z 01019KT 08/M04 A2996 RMK A01 T00751043  RH  043%=      5-min Rain = 0
KAM1 240725Z 00015G20KT 07/M04 A2996 RMK A01 T00741044  RH  043%=      5-min Rain = 0
KAM1 240726Z 00018KT 07/M04 A2996 RMK A01 T00731044  RH  043%=      5-min Rain = 0
KAM1 240727Z 36018G23KT 07/M04 A2996 RMK A01 T00731044  RH  043%=      5-min Rain = 0
KAM1 240728Z 36017KT 07/M04 A2996 RMK A01 T00741043  RH  043%=      5-min Rain = 0
KAM1 240729Z 36015KT 07/M04 A2996 RMK A01 T00731044  RH  043%=      5-min Rain = 0
KAM1 240730Z 00018KT 07/M04 A2996 RMK A01 T00721044  RH  043%=      5-min Rain = 0
KAM1 240731Z 36017G22KT 07/M04 A2996 RMK A01 T00721044  RH  044%=      5-min Rain = 0
KAM1 240732Z 00017KT 07/M04 A2996 RMK A01 T00721044  RH  044%=      5-min Rain = 0
KAM1 240733Z 00020KT 07/M04 A2997 RMK A01 T00721044  RH  043%=      5-min Rain = 0
KAM1 240734Z 00020G26KT 07/M04 A2997 RMK A01 T00721044  RH  043%=      5-min Rain = 0
KAM1 240735Z 00016KT 07/M04 A2997 RMK A01 T00731044  RH  043%=      5-min Rain = 0
KAM1 240736Z 36016KT 07/M05 A2997 RMK A01 T00711045  RH  043%=      5-min Rain = 0
KAM1 240737Z 36017G22KT 07/M05 A2997 RMK A01 T00711045  RH  044%=      5-min Rain = 0
KAM1 240738Z 00015KT 07/M04 A2997 RMK A01 T00701044  RH  044%=      5-min Rain = 0
KAM1 240739Z 00018KT 07/M05 A2997 RMK A01 T00691045  RH  044%=      5-min Rain = 0
KAM1 240740Z 36019G24KT 07/M05 A2997 RMK A01 T00691045  RH  044%=      5-min Rain = 0
KAM1 240741Z 00017KT 07/M05 A2997 RMK A01 T00691045  RH  044%=      5-min Rain = 0
KAM1 240742Z 00017KT 07/M05 A2997 RMK A01 T00691045  RH  044%=      5-min Rain = 0
KAM1 240743Z 36017KT 07/M05 A2997 RMK A01 T00691045  RH  044%=      5-min Rain = 0
KAM1 240744Z 00019KT 07/M05 A2997 RMK A01 T00691045  RH  044%=      5-min Rain = 0
KAM1 240745Z 00018KT 07/M05 A2997 RMK A01 T00681045  RH  044%=      5-min Rain = 0
KAM1 240746Z 00018G23KT 07/M05 A2997 RMK A01 T00681046  RH  044%=      5-min Rain = 0
KAM1 240747Z 01019KT 07/M05 A2997 RMK A01 T00681045  RH  044%=      5-min Rain = 0
KAM1 240748Z 36020KT 07/M05 A2997 RMK A01 T00681045  RH  044%=      5-min Rain = 0
KAM1 240749Z 00022KT 07/M05 A2998 RMK A01 T00681046  RH  044%=      5-min Rain = 0
KAM1 240750Z 36022KT 07/M05 A2998 RMK A01 T00691046  RH  044%=      5-min Rain = 0
KAM1 240751Z 36019KT 07/M05 A2998 RMK A01 T00701046  RH  044%=      5-min Rain = 0
KAM1 240752Z 36017KT 07/M05 A2998 RMK A01 T00691046  RH  044%=      5-min Rain = 0
KAM1 240753Z 00020KT 07/M05 A2998 RMK A01 T00681046  RH  044%=      5-min Rain = 0
KAM1 240754Z 36018KT 07/M05 A2998 RMK A01 T00671047  RH  044%=      5-min Rain = 0
KAM1 240755Z 36020KT 07/M05 A2998 RMK A01 T00681047  RH  044%=      5-min Rain = 0
KAM1 240756Z 36021KT 07/M05 A2998 RMK A01 T00671046  RH  044%=      5-min Rain = 0
KAM1 240757Z 36021KT 07/M05 A2998 RMK A01 T00671046  RH  044%=      5-min Rain = 0
KAM1 240758Z 36019G25KT 07/M05 A2998 RMK A01 T00681047  RH  044%=      5-min Rain = 0
KAM1 240759Z 36019KT 07/M05 A2999 RMK A01 T00671047  RH  044%=      5-min Rain = 0
KAM1 240800Z 00017KT 07/M05 A2999 RMK A01 T00671046  RH  044%=      5-min Rain = 0
KAM1 240801Z 35016KT 07/M05 A2999 RMK A01 T00661047  RH  044%=      5-min Rain = 0
KAM1 240802Z 36018KT 07/M05 A2999 RMK A01 T00651047  RH  045%=      5-min Rain = 0
KAM1 240803Z 36018KT 07/M05 A2999 RMK A01 T00651046  RH  045%=      5-min Rain = 0
KAM1 240804Z 36017KT 06/M05 A2999 RMK A01 T00641047  RH  045%=      5-min Rain = 0
KAM1 240805Z 35018KT 06/M05 A30 RMK A01 T00641047  RH  045%=      5-min Rain = 0
KAM1 240806Z 36015KT 06/M05 A30 RMK A01 T00641047  RH  045%=      5-min Rain = 0
KAM1 240807Z 36022G28KT 06/M05 A30 RMK A01 T00631047  RH  045%=      5-min Rain = 0
KAM1 240808Z 36019KT 06/M05 A30 RMK A01 T00641047  RH  045%=      5-min Rain = 0
KAM1 240809Z 36018G24KT 06/M05 A30 RMK A01 T00641047  RH  045%=      5-min Rain = 0
KAM1 240810Z 00017KT 06/M05 A30 RMK A01 T00641047  RH  045%=      5-min Rain = 0
KAM1 240811Z 00019G24KT 06/M05 A30 RMK A01 T00631046  RH  045%=      5-min Rain = 0
KAM1 240812Z 00020G25KT 06/M05 A30 RMK A01 T00631047  RH  045%=      5-min Rain = 0
KAM1 240813Z 01022KT 06/M05 A30 RMK A01 T00631047  RH  045%=      5-min Rain = 0
KAM1 240814Z 00025G30KT 06/M05 A30 RMK A01 T00631047  RH  045%=      5-min Rain = 0
KAM1 240815Z 01022KT 06/M05 A30 RMK A01 T00641047  RH  045%=      5-min Rain = 0
KAM1 240816Z 00020G25KT 06/M05 A30 RMK A01 T00641048  RH  045%=      5-min Rain = 0
KAM1 240817Z 00017KT 06/M05 A30 RMK A01 T00641048  RH  045%=      5-min Rain = 0
KAM1 240818Z 00018KT 06/M05 A30 RMK A01 T00621047  RH  045%=      5-min Rain = 0
KAM1 240819Z 00020G25KT 06/M05 A30 RMK A01 T00621047  RH  045%=      5-min Rain = 0
KAM1 240820Z 36022G27KT 06/M05 A30 RMK A01 T00621047  RH  046%=      5-min Rain = 0
KAM1 240821Z 00022KT 06/M05 A30 RMK A01 T00621048  RH  045%=      5-min Rain = 0
KAM1 240822Z 00021KT 06/M05 A30 RMK A01 T00621048  RH  045%=      5-min Rain = 0
KAM1 240823Z 00019KT 06/M05 A30 RMK A01 T00621048  RH  045%=      5-min Rain = 0
KAM1 240824Z 00021G26KT 06/M05 A30 RMK A01 T00611048  RH  045%=      5-min Rain = 0
KAM1 240825Z 36020KT 06/M05 A30 RMK A01 T00611048  RH  046%=      5-min Rain = 0
KAM1 240826Z 00020G25KT 06/M05 A30 RMK A01 T00611048  RH  046%=      5-min Rain = 0
KAM1 240827Z 00024KT 06/M05 A30 RMK A01 T00601048  RH  046%=      5-min Rain = 0
KAM1 240828Z 36020KT 06/M05 A30 RMK A01 T00601049  RH  045%=      5-min Rain = 0
KAM1 240829Z 36020KT 06/M05 A30 RMK A01 T00601049  RH  045%=      5-min Rain = 0
KAM1 240830Z 36024G30KT 06/M05 A30 RMK A01 T00601049  RH  045%=      5-min Rain = 0
KAM1 240831Z 36020G26KT 06/M05 A30 RMK A01 T00601050  RH  045%=      5-min Rain = 0
KAM1 240832Z 36021KT 06/M05 A30 RMK A01 T00591050  RH  045%=      5-min Rain = 0
KAM1 240833Z 00018KT 06/M05 A30 RMK A01 T00591050  RH  045%=      5-min Rain = 0
KAM1 240834Z 36018KT 06/M05 A30 RMK A01 T00581050  RH  046%=      5-min Rain = 0
KAM1 240835Z 00018G23KT 06/M05 A30 RMK A01 T00571050  RH  046%=      5-min Rain = 0
KAM1 240836Z 36020KT 06/M05 A30 RMK A01 T00571050  RH  046%=      5-min Rain = 0
KAM1 240837Z 36019KT 06/M05 A30 RMK A01 T00561050  RH  046%=      5-min Rain = 0
KAM1 240838Z 00020G25KT 06/M05 A30 RMK A01 T00571050  RH  046%=      5-min Rain = 0
KAM1 240839Z 36020KT 06/M05 A30 RMK A01 T00571051  RH  046%=      5-min Rain = 0
KAM1 240840Z 36022KT 06/M05 A30 RMK A01 T00571051  RH  046%=      5-min Rain = 0
KAM1 240841Z 00021KT 06/M05 A30 RMK A01 T00571051  RH  046%=      5-min Rain = 0
KAM1 240842Z 36021G27KT 06/M05 A30 RMK A01 T00571051  RH  046%=      5-min Rain = 0
KAM1 240843Z 36021KT 06/M05 A30 RMK A01 T00561051  RH  046%=      5-min Rain = 0
KAM1 240844Z 36017G22KT 06/M05 A30 RMK A01 T00551051  RH  046%=      5-min Rain = 0
KAM1 240845Z 35020KT 05/M05 A30 RMK A01 T00541052  RH  046%=      5-min Rain = 0
KAM1 240846Z 36020G25KT 05/M05 A30 RMK A01 T00541052  RH  046%=      5-min Rain = 0
KAM1 240847Z 35023KT 05/M05 A2999 RMK A01 T00541052  RH  046%=      5-min Rain = 0
KAM1 240848Z 35020G26KT 06/M05 A2999 RMK A01 T00551052  RH  046%=      5-min Rain = 0
KAM1 240849Z 36022G27KT 06/M05 A2999 RMK A01 T00551053  RH  046%=      5-min Rain = 0
KAM1 240850Z 00023KT 06/M05 A30 RMK A01 T00551053  RH  046%=      5-min Rain = 0
KAM1 240851Z 36021G26KT 06/M05 A30 RMK A01 T00551053  RH  046%=      5-min Rain = 0
KAM1 240852Z 35021KT 06/M05 A30 RMK A01 T00551053  RH  046%=      5-min Rain = 0
KAM1 240853Z 35021G26KT 05/M05 A30 RMK A01 T00541053  RH  046%=      5-min Rain = 0
KAM1 240854Z 36021G26KT 05/M05 A30 RMK A01 T00541053  RH  046%=      5-min Rain = 0
KAM1 240855Z 35022G27KT 05/M05 A30 RMK A01 T00541054  RH  046%=      5-min Rain = 0
KAM1 240856Z 00021KT 05/M05 A30 RMK A01 T00531054  RH  046%=      5-min Rain = 0
KAM1 240857Z 36019KT 05/M06 A30 RMK A01 T00541055  RH  046%=      5-min Rain = 0
KAM1 240858Z 00022KT 05/M05 A30 RMK A01 T00531054  RH  046%=      5-min Rain = 0
KAM1 240859Z 00023KT 05/M06 A30 RMK A01 T00531055  RH  046%=      5-min Rain = 0
KAM1 240900Z 00023KT 05/M06 A30 RMK A01 T00531055  RH  045%=      5-min Rain = 0
KAM1 240901Z 00020G26KT 05/M06 A30 RMK A01 T00541055  RH  045%=      5-min Rain = 0
KAM1 240902Z 00020KT 05/M06 A3001 RMK A01 T00541056  RH  045%=      5-min Rain = 0
KAM1 240903Z 00020KT 05/M06 A3001 RMK A01 T00531056  RH  045%=      5-min Rain = 0
KAM1 240904Z 36017G23KT 05/M06 A3001 RMK A01 T00531055  RH  046%=      5-min Rain = 0
KAM1 240905Z 00017KT 05/M06 A3001 RMK A01 T00521055  RH  046%=      5-min Rain = 0
KAM1 240906Z 36017KT 05/M06 A3001 RMK A01 T00511056  RH  046%=      5-min Rain = 0
KAM1 240907Z 36016KT 05/M06 A3001 RMK A01 T00511055  RH  046%=      5-min Rain = 0
KAM1 240908Z 36015KT 05/M06 A3001 RMK A01 T00511055  RH  046%=      5-min Rain = 0
KAM1 240909Z 36016KT 05/M06 A3001 RMK A01 T00501055  RH  047%=      5-min Rain = 0
KAM1 240910Z 36017G23KT 05/M06 A3001 RMK A01 T00491055  RH  047%=      5-min Rain = 0
KAM1 240911Z 36016KT 05/M06 A3001 RMK A01 T00491055  RH  047%=      5-min Rain = 0
KAM1 240912Z 35017G22KT 05/M06 A3001 RMK A01 T00491055  RH  047%=      5-min Rain = 0
KAM1 240913Z 35016KT 05/M06 A3001 RMK A01 T00491055  RH  047%=      5-min Rain = 0
KAM1 240914Z 36018KT 05/M06 A3001 RMK A01 T00501055  RH  047%=      5-min Rain = 0
KAM1 240915Z 36019KT 05/M06 A3001 RMK A01 T00491055  RH  047%=      5-min Rain = 0
KAM1 240916Z 36018KT 05/M06 A3001 RMK A01 T00491055  RH  047%=      5-min Rain = 0
KAM1 240917Z 35017KT 05/M06 A3001 RMK A01 T00491055  RH  047%=      5-min Rain = 0
KAM1 240918Z 36019KT 05/M06 A3001 RMK A01 T00491055  RH  047%=      5-min Rain = 0
KAM1 240919Z 36016KT 05/M06 A3001 RMK A01 T00491055  RH  047%=      5-min Rain = 0
KAM1 240920Z 36019KT 05/M06 A3002 RMK A01 T00491055  RH  047%=      5-min Rain = 0
KAM1 240921Z 36017G22KT 05/M05 A3002 RMK A01 T00491054  RH  047%=      5-min Rain = 0
KAM1 240922Z 00017KT 05/M05 A3002 RMK A01 T00491054  RH  047%=      5-min Rain = 0
KAM1 240923Z 36017KT 05/M05 A3002 RMK A01 T00481054  RH  047%=      5-min Rain = 0
KAM1 240924Z 36017KT 05/M05 A3002 RMK A01 T00481054  RH  048%=      5-min Rain = 0
KAM1 240925Z 36017KT 05/M05 A3002 RMK A01 T00481054  RH  048%=      5-min Rain = 0
KAM1 240926Z 00015G20KT 05/M05 A3002 RMK A01 T00481054  RH  048%=      5-min Rain = 0
KAM1 240927Z 36015KT 05/M05 A3002 RMK A01 T00471054  RH  048%=      5-min Rain = 0
KAM1 240928Z 36016KT 05/M05 A3002 RMK A01 T00471054  RH  048%=      5-min Rain = 0
KAM1 240929Z 35017KT 05/M05 A3002 RMK A01 T00471054  RH  048%=      5-min Rain = 0
KAM1 240930Z 36017KT 05/M05 A3002 RMK A01 T00471054  RH  048%=      5-min Rain = 0
KAM1 240931Z 00014KT 05/M05 A3002 RMK A01 T00471054  RH  048%=      5-min Rain = 0
KAM1 240932Z 36016G21KT 05/M05 A3002 RMK A01 T00461054  RH  048%=      5-min Rain = 0
KAM1 240933Z 35017KT 05/M05 A3002 RMK A01 T00451054  RH  049%=      5-min Rain = 0
KAM1 240934Z 36016G22KT 05/M05 A3002 RMK A01 T00451054  RH  049%=      5-min Rain = 0
KAM1 240935Z 00017KT 05/M05 A3002 RMK A01 T00461053  RH  049%=      5-min Rain = 0
KAM1 240936Z 36017KT 05/M05 A3002 RMK A01 T00461053  RH  049%=      5-min Rain = 0
KAM1 240937Z 36016G21KT 05/M05 A3002 RMK A01 T00461053  RH  048%=      5-min Rain = 0
KAM1 240938Z 00014KT 05/M05 A3002 RMK A01 T00461054  RH  048%=      5-min Rain = 0
KAM1 240939Z 36014KT 05/M05 A3002 RMK A01 T00451054  RH  049%=      5-min Rain = 0
KAM1 240940Z 36014KT 04/M05 A3002 RMK A01 T00441054  RH  049%=      5-min Rain = 0
KAM1 240941Z 00014KT 04/M05 A3002 RMK A01 T00441054  RH  049%=      5-min Rain = 0
KAM1 240942Z 36015KT 04/M05 A3002 RMK A01 T00431053  RH  049%=      5-min Rain = 0
KAM1 240943Z 36015KT 04/M05 A3002 RMK A01 T00431053  RH  049%=      5-min Rain = 0
KAM1 240944Z 00014KT 04/M05 A3002 RMK A01 T00441053  RH  050%=      5-min Rain = 0
KAM1 240945Z 35017KT 04/M05 A3002 RMK A01 T00431053  RH  050%=      5-min Rain = 0
KAM1 240946Z 36016KT 04/M05 A3002 RMK A01 T00431053  RH  050%=      5-min Rain = 0
KAM1 240947Z 36014G19KT 04/M05 A3003 RMK A01 T00431053  RH  050%=      5-min Rain = 0
KAM1 240948Z 36013KT 04/M05 A3003 RMK A01 T00431053  RH  050%=      5-min Rain = 0
KAM1 240949Z 35015KT 04/M05 A3003 RMK A01 T00421053  RH  050%=      5-min Rain = 0
KAM1 240950Z 36014KT 04/M05 A3003 RMK A01 T00431052  RH  050%=      5-min Rain = 0
KAM1 240951Z 36016G22KT 04/M05 A3003 RMK A01 T00431053  RH  050%=      5-min Rain = 0
KAM1 240952Z 35016KT 04/M05 A3003 RMK A01 T00431052  RH  050%=      5-min Rain = 0
KAM1 240953Z 36018KT 04/M05 A3003 RMK A01 T00441052  RH  050%=      5-min Rain = 0
KAM1 240954Z 36015KT 04/M05 A3003 RMK A01 T00441052  RH  050%=      5-min Rain = 0
KAM1 240955Z 35016KT 04/M05 A3003 RMK A01 T00441052  RH  050%=      5-min Rain = 0
KAM1 240956Z 36015KT 04/M05 A3003 RMK A01 T00441051  RH  050%=      5-min Rain = 0
KAM1 240957Z 36018KT 04/M05 A3003 RMK A01 T00431051  RH  050%=      5-min Rain = 0
KAM1 240958Z 35016KT 04/M05 A3003 RMK A01 T00431051  RH  050%=      5-min Rain = 0
KAM1 240959Z 35015KT 04/M05 A3003 RMK A01 T00441051  RH  050%=      5-min Rain = 0
KAM1 241000Z 35016KT 04/M05 A3004 RMK A01 T00431051  RH  050%=      5-min Rain = 0
KAM1 241001Z 35016KT 04/M05 A3004 RMK A01 T00431051  RH  051%=      5-min Rain = 0
KAM1 241002Z 36015G20KT 04/M05 A3004 RMK A01 T00431051  RH  051%=      5-min Rain = 0
KAM1 241003Z 35017KT 04/M05 A3004 RMK A01 T00431050  RH  051%=      5-min Rain = 0
KAM1 241004Z 35016G21KT 04/M05 A3004 RMK A01 T00421051  RH  051%=      5-min Rain = 0
KAM1 241005Z 35016KT 04/M05 A3004 RMK A01 T00421050  RH  051%=      5-min Rain = 0
KAM1 241006Z 36017KT 04/M05 A3004 RMK A01 T00421050  RH  051%=      5-min Rain = 0
KAM1 241007Z 35016KT 04/M05 A3004 RMK A01 T00421050  RH  051%=      5-min Rain = 0
KAM1 241008Z 36017KT 04/M05 A3004 RMK A01 T00421050  RH  051%=      5-min Rain = 0
KAM1 241009Z 35016G21KT 04/M05 A3004 RMK A01 T00421050  RH  051%=      5-min Rain = 0
KAM1 241010Z 35017KT 04/M05 A3004 RMK A01 T00421050  RH  051%=      5-min Rain = 0
KAM1 241011Z 36019KT 04/M05 A3004 RMK A01 T00411050  RH  051%=      5-min Rain = 0
KAM1 241012Z 00018KT 04/M05 A3004 RMK A01 T00411050  RH  051%=      5-min Rain = 0
KAM1 241013Z 36016G22KT 04/M05 A3004 RMK A01 T00411050  RH  051%=      5-min Rain = 0
KAM1 241014Z 36016KT 04/M05 A3004 RMK A01 T00411050  RH  052%=      5-min Rain = 0
KAM1 241015Z 36016KT 04/M05 A3004 RMK A01 T00401050  RH  052%=      5-min Rain = 0
KAM1 241016Z 35016KT 04/M05 A3004 RMK A01 T00391050  RH  052%=      5-min Rain = 0
KAM1 241017Z 36018KT 04/M05 A3004 RMK A01 T00391050  RH  052%=      5-min Rain = 0
KAM1 241018Z 36019KT 04/M05 A3004 RMK A01 T00391050  RH  052%=      5-min Rain = 0
KAM1 241019Z 35020G25KT 04/M05 A3004 RMK A01 T00391050  RH  052%=      5-min Rain = 0
KAM1 241020Z 35019G24KT 04/M05 A3004 RMK A01 T00401050  RH  052%=      5-min Rain = 0
KAM1 241021Z 35016KT 04/M05 A3004 RMK A01 T00401050  RH  052%=      5-min Rain = 0
KAM1 241022Z 36017G23KT 04/M05 A3004 RMK A01 T00401050  RH  052%=      5-min Rain = 0
KAM1 241023Z 36016G21KT 04/M05 A3004 RMK A01 T00391050  RH  052%=      5-min Rain = 0
KAM1 241024Z 36016KT 04/M05 A3004 RMK A01 T00391050  RH  052%=      5-min Rain = 0
KAM1 241025Z 36016KT 04/M05 A3004 RMK A01 T00381050  RH  053%=      5-min Rain = 0
KAM1 241026Z 36015KT 04/M05 A3004 RMK A01 T00381050  RH  053%=      5-min Rain = 0
KAM1 241027Z 36015G22KT 04/M05 A3004 RMK A01 T00371050  RH  053%=      5-min Rain = 0
KAM1 241028Z 35018KT 04/M05 A3004 RMK A01 T00361050  RH  053%=      5-min Rain = 0
KAM1 241029Z 36017KT 04/M05 A3004 RMK A01 T00361050  RH  053%=      5-min Rain = 0
KAM1 241030Z 35018KT 04/M05 A3004 RMK A01 T00371050  RH  053%=      5-min Rain = 0
KAM1 241031Z 35017KT 04/M05 A3004 RMK A01 T00361050  RH  053%=      5-min Rain = 0
KAM1 241032Z 35015KT 04/M05 A3004 RMK A01 T00361050  RH  053%=      5-min Rain = 0
KAM1 241033Z 35015KT 04/M05 A3004 RMK A01 T00361050  RH  053%=      5-min Rain = 0
KAM1 241034Z 35016KT 04/M05 A3004 RMK A01 T00351050  RH  054%=      5-min Rain = 0
KAM1 241035Z 35017KT 04/M05 A3004 RMK A01 T00351050  RH  054%=      5-min Rain = 0
KAM1 241036Z 35017KT 04/M05 A3005 RMK A01 T00351050  RH  054%=      5-min Rain = 0
KAM1 241037Z 35015KT 04/M05 A3004 RMK A01 T00361050  RH  053%=      5-min Rain = 0
KAM1 241038Z 34015KT 04/M05 A3005 RMK A01 T00351051  RH  054%=      5-min Rain = 0
KAM1 241039Z 35015KT 03/M05 A3005 RMK A01 T00341051  RH  054%=      5-min Rain = 0
KAM1 241040Z 35017KT 03/M05 A3005 RMK A01 T00341051  RH  054%=      5-min Rain = 0
KAM1 241041Z 35015G20KT 03/M05 A3005 RMK A01 T00341050  RH  054%=      5-min Rain = 0
KAM1 241042Z 35017G22KT 03/M05 A3005 RMK A01 T00341050  RH  054%=      5-min Rain = 0
KAM1 241043Z 35016G21KT 03/M05 A3005 RMK A01 T00341050  RH  054%=      5-min Rain = 0
KAM1 241044Z 35017KT 03/M05 A3005 RMK A01 T00341050  RH  054%=      5-min Rain = 0
KAM1 241045Z 35017G22KT 03/M05 A3005 RMK A01 T00341050  RH  054%=      5-min Rain = 0
KAM1 241046Z 35015KT 03/M05 A3005 RMK A01 T00331050  RH  054%=      5-min Rain = 0
KAM1 241047Z 35016KT 03/M05 A3005 RMK A01 T00331051  RH  054%=      5-min Rain = 0
KAM1 241048Z 35015KT 03/M05 A3006 RMK A01 T00321051  RH  054%=      5-min Rain = 0
KAM1 241049Z 35014KT 03/M05 A3006 RMK A01 T00321051  RH  055%=      5-min Rain = 0
KAM1 241050Z 35015KT 03/M05 A3006 RMK A01 T00311051  RH  055%=      5-min Rain = 0
KAM1 241051Z 35015KT 03/M05 A3006 RMK A01 T00311051  RH  055%=      5-min Rain = 0
KAM1 241052Z 35014G19KT 03/M05 A3006 RMK A01 T00311051  RH  055%=      5-min Rain = 0
KAM1 241053Z 35015KT 03/M05 A3006 RMK A01 T00311051  RH  055%=      5-min Rain = 0
KAM1 241054Z 35014KT 03/M05 A3006 RMK A01 T00311051  RH  055%=      5-min Rain = 0
KAM1 241055Z 35013KT 03/M05 A3006 RMK A01 T00311051  RH  055%=      5-min Rain = 0
KAM1 241056Z 35012KT 03/M05 A3006 RMK A01 T00311051  RH  055%=      5-min Rain = 0
KAM1 241057Z 35013KT 03/M05 A3006 RMK A01 T00301052  RH  055%=      5-min Rain = 0
KAM1 241058Z 35011KT 03/M05 A3006 RMK A01 T00301051  RH  055%=      5-min Rain = 0
KAM1 241059Z 35014KT 03/M05 A3006 RMK A01 T00281052  RH  055%=      5-min Rain = 0
KAM1 241100Z 35014KT 03/M05 A3006 RMK A01 T00281052  RH  056%=      5-min Rain = 0
KAM1 241101Z 35012KT 03/M05 A3006 RMK A01 T00281052  RH  056%=      5-min Rain = 0
KAM1 241102Z 35012KT 03/M05 A3006 RMK A01 T00281052  RH  056%=      5-min Rain = 0
KAM1 241103Z 35014G19KT 03/M05 A3006 RMK A01 T00271052  RH  056%=      5-min Rain = 0
KAM1 241104Z 35015KT 03/M05 A3006 RMK A01 T00281052  RH  056%=      5-min Rain = 0
KAM1 241105Z 35014KT 03/M05 A3006 RMK A01 T00291052  RH  055%=      5-min Rain = 0
KAM1 241106Z 35012KT 03/M05 A3007 RMK A01 T00301052  RH  055%=      5-min Rain = 0
KAM1 241107Z 35011KT 03/M05 A3007 RMK A01 T00281053  RH  055%=      5-min Rain = 0
KAM1 241108Z 35011KT 03/M05 A3007 RMK A01 T00261053  RH  056%=      5-min Rain = 0
KAM1 241109Z 35013G18KT 03/M05 A3007 RMK A01 T00261053  RH  056%=      5-min Rain = 0
KAM1 241110Z 35013KT 03/M05 A3007 RMK A01 T00261053  RH  056%=      5-min Rain = 0
KAM1 241111Z 35014KT 03/M05 A3007 RMK A01 T00261052  RH  056%=      5-min Rain = 0
KAM1 241112Z 35014KT 03/M05 A3007 RMK A01 T00261052  RH  056%=      5-min Rain = 0
KAM1 241113Z 34014KT 03/M05 A3007 RMK A01 T00271052  RH  056%=      5-min Rain = 0
KAM1 241114Z 35014KT 03/M05 A3007 RMK A01 T00271052  RH  056%=      5-min Rain = 0
KAM1 241115Z 35013KT 03/M05 A3007 RMK A01 T00271052  RH  056%=      5-min Rain = 0
KAM1 241116Z 35011KT 03/M05 A3007 RMK A01 T00261052  RH  056%=      5-min Rain = 0
KAM1 241117Z 35012KT 03/M05 A3008 RMK A01 T00251053  RH  057%=      5-min Rain = 0
KAM1 241118Z 34013KT 02/M05 A3008 RMK A01 T00241052  RH  057%=      5-min Rain = 0
KAM1 241119Z 34013KT 02/M05 A3008 RMK A01 T00241052  RH  057%=      5-min Rain = 0
KAM1 241120Z 34012KT 02/M05 A3008 RMK A01 T00241052  RH  057%=      5-min Rain = 0
KAM1 241121Z 35013KT 02/M05 A3008 RMK A01 T00241052  RH  057%=      5-min Rain = 0
KAM1 241122Z 35012KT 02/M05 A3008 RMK A01 T00241052  RH  057%=      5-min Rain = 0
KAM1 241123Z 35013KT 02/M05 A3008 RMK A01 T00241052  RH  057%=      5-min Rain = 0
KAM1 241124Z 34011KT 02/M05 A3008 RMK A01 T00241052  RH  057%=      5-min Rain = 0
KAM1 241125Z 35013G18KT 02/M05 A3008 RMK A01 T00231052  RH  058%=      5-min Rain = 0
KAM1 241126Z 35014KT 02/M05 A3008 RMK A01 T00221052  RH  058%=      5-min Rain = 0
KAM1 241127Z 35015KT 02/M05 A3008 RMK A01 T00231052  RH  058%=      5-min Rain = 0
KAM1 241128Z 35013KT 02/M05 A3008 RMK A01 T00231051  RH  058%=      5-min Rain = 0
KAM1 241129Z 34015KT 02/M05 A3008 RMK A01 T00231051  RH  058%=      5-min Rain = 0
KAM1 241130Z 34015KT 02/M05 A3008 RMK A01 T00221051  RH  058%=      5-min Rain = 0
KAM1 241131Z 34015G20KT 02/M05 A3009 RMK A01 T00231051  RH  058%=      5-min Rain = 0
KAM1 241132Z 35015KT 02/M05 A3009 RMK A01 T00221051  RH  058%=      5-min Rain = 0
KAM1 241133Z 35015KT 02/M05 A3009 RMK A01 T00231051  RH  058%=      5-min Rain = 0
KAM1 241134Z 35014KT 02/M05 A3009 RMK A01 T00231052  RH  058%=      5-min Rain = 0
KAM1 241135Z 35015KT 02/M05 A3009 RMK A01 T00221051  RH  058%=      5-min Rain = 0
KAM1 241136Z 35014KT 02/M05 A3009 RMK A01 T00221051  RH  058%=      5-min Rain = 0
KAM1 241137Z 34016KT 02/M05 A3009 RMK A01 T00221052  RH  058%=      5-min Rain = 0
KAM1 241138Z 34014KT 02/M05 A3009 RMK A01 T00221051  RH  058%=      5-min Rain = 0
KAM1 241139Z 34013KT 02/M05 A3009 RMK A01 T00211052  RH  059%=      5-min Rain = 0
KAM1 241140Z 34015KT 02/M05 A3009 RMK A01 T00201052  RH  059%=      5-min Rain = 0
KAM1 241141Z 34016G22KT 02/M05 A3009 RMK A01 T00201052  RH  059%=      5-min Rain = 0
KAM1 241142Z 34015G20KT 02/M05 A3009 RMK A01 T00211051  RH  059%=      5-min Rain = 0
KAM1 241143Z 34014KT 02/M05 A3009 RMK A01 T00211051  RH  059%=      5-min Rain = 0
KAM1 241144Z 34015KT 02/M05 A3009 RMK A01 T00201052  RH  059%=      5-min Rain = 0
KAM1 241145Z 34017KT 02/M05 A3009 RMK A01 T00201052  RH  059%=      5-min Rain = 0
KAM1 241146Z 34016KT 02/M05 A301 RMK A01 T00211052  RH  059%=      5-min Rain = 0
KAM1 241147Z 35012KT 02/M05 A301 RMK A01 T00211052  RH  059%=      5-min Rain = 0
KAM1 241148Z 34014KT 02/M05 A301 RMK A01 T00201053  RH  059%=      5-min Rain = 0
KAM1 241149Z 35014KT 02/M05 A301 RMK A01 T00181053  RH  059%=      5-min Rain = 0
KAM1 241150Z 35015KT 02/M05 A301 RMK A01 T00191052  RH  059%=      5-min Rain = 0
KAM1 241151Z 34014KT 02/M05 A301 RMK A01 T00181052  RH  059%=      5-min Rain = 0
KAM1 241152Z 34014KT 02/M05 A301 RMK A01 T00191052  RH  059%=      5-min Rain = 0
KAM1 241153Z 35014KT 02/M05 A301 RMK A01 T00181052  RH  059%=      5-min Rain = 0
KAM1 241154Z 35013KT 02/M05 A301 RMK A01 T00181052  RH  060%=      5-min Rain = 0
KAM1 241155Z 34013KT 02/M05 A301 RMK A01 T00181052  RH  060%=      5-min Rain = 0
KAM1 241156Z 34014KT 02/M05 A301 RMK A01 T00181052  RH  060%=      5-min Rain = 0
KAM1 241157Z 35013KT 02/M05 A301 RMK A01 T00171053  RH  060%=      5-min Rain = 0
KAM1 241158Z 35014KT 02/M05 A301 RMK A01 T00171052  RH  060%=      5-min Rain = 0
KAM1 241159Z 35015KT 02/M05 A3011 RMK A01 T00171053  RH  060%=      5-min Rain = 0
KAM1 241200Z 34015KT 02/M05 A3011 RMK A01 T00171052  RH  060%=      5-min Rain = 0
KAM1 241201Z 34012KT 02/M05 A3011 RMK A01 T00171053  RH  060%=      5-min Rain = 0
KAM1 241202Z 34015KT 02/M05 A3011 RMK A01 T00161053  RH  060%=      5-min Rain = 0
KAM1 241203Z 34014KT 02/M05 A3011 RMK A01 T00161053  RH  060%=      5-min Rain = 0
KAM1 241204Z 34014KT 02/M05 A3011 RMK A01 T00151053  RH  060%=      5-min Rain = 0
KAM1 241205Z 34015KT 02/M05 A3011 RMK A01 T00151054  RH  060%=      5-min Rain = 0
KAM1 241206Z 34013KT 02/M05 A3011 RMK A01 T00151054  RH  060%=      5-min Rain = 0
KAM1 241207Z 34013KT 01/M05 A3011 RMK A01 T00141054  RH  060%=      5-min Rain = 0
KAM1 241208Z 34012KT 01/M06 A3011 RMK A01 T00141055  RH  060%=      5-min Rain = 0
KAM1 241209Z 34015KT 01/M06 A3011 RMK A01 T00131055  RH  061%=      5-min Rain = 0
KAM1 241210Z 34014KT 01/M06 A3011 RMK A01 T00131056  RH  060%=      5-min Rain = 0
KAM1 241211Z 35015KT 01/M06 A3012 RMK A01 T00131056  RH  060%=      5-min Rain = 0
KAM1 241212Z 34015KT 01/M06 A3012 RMK A01 T00131056  RH  060%=      5-min Rain = 0
KAM1 241213Z 34015KT 01/M06 A3012 RMK A01 T00131057  RH  060%=      5-min Rain = 0
KAM1 241214Z 34015KT 01/M06 A3012 RMK A01 T00131058  RH  059%=      5-min Rain = 0
KAM1 241215Z 34014KT 01/M06 A3012 RMK A01 T00131058  RH  059%=      5-min Rain = 0
KAM1 241216Z 34013KT 01/M06 A3012 RMK A01 T00131058  RH  059%=      5-min Rain = 0
KAM1 241217Z 34013KT 01/M06 A3012 RMK A01 T00121059  RH  059%=      5-min Rain = 0
KAM1 241218Z 34016KT 01/M06 A3012 RMK A01 T00121060  RH  059%=      5-min Rain = 0
KAM1 241219Z 35013KT 01/M06 A3012 RMK A01 T00131059  RH  059%=      5-min Rain = 0
KAM1 241220Z 34013KT 01/M06 A3012 RMK A01 T00121060  RH  059%=      5-min Rain = 0
KAM1 241221Z 35016KT 01/M06 A3012 RMK A01 T00111061  RH  059%=      5-min Rain = 0
KAM1 241222Z 34014KT 01/M06 A3012 RMK A01 T00111061  RH  059%=      5-min Rain = 0
KAM1 241223Z 35016KT 01/M06 A3012 RMK A01 T00111062  RH  058%=      5-min Rain = 0
KAM1 241224Z 35016KT 01/M06 A3012 RMK A01 T00111062  RH  058%=      5-min Rain = 0
KAM1 241225Z 35014KT 01/M06 A3012 RMK A01 T00111062  RH  058%=      5-min Rain = 0
KAM1 241226Z 35013KT 01/M06 A3012 RMK A01 T00111062  RH  058%=      5-min Rain = 0
KAM1 241227Z 35015KT 01/M06 A3012 RMK A01 T00101063  RH  058%=      5-min Rain = 0
KAM1 241228Z 35016KT 01/M06 A3012 RMK A01 T00091063  RH  058%=      5-min Rain = 0
KAM1 241229Z 35014KT 01/M06 A3012 RMK A01 T00101063  RH  058%=      5-min Rain = 0
KAM1 241230Z 35014KT 01/M06 A3012 RMK A01 T00101063  RH  058%=      5-min Rain = 0
KAM1 241231Z 35015KT 01/M06 A3012 RMK A01 T00091063  RH  058%=      5-min Rain = 0
KAM1 241232Z 35015KT 01/M06 A3012 RMK A01 T00091063  RH  058%=      5-min Rain = 0
KAM1 241233Z 35015KT 01/M06 A3012 RMK A01 T00091064  RH  058%=      5-min Rain = 0
KAM1 241234Z 35015KT 01/M06 A3012 RMK A01 T00081064  RH  058%=      5-min Rain = 0
KAM1 241235Z 35015KT 01/M06 A3012 RMK A01 T00081064  RH  058%=      5-min Rain = 0
KAM1 241236Z 35014KT 01/M06 A3012 RMK A01 T00081064  RH  058%=      5-min Rain = 0
KAM1 241237Z 35014KT 01/M07 A3012 RMK A01 T00081065  RH  058%=      5-min Rain = 0
KAM1 241238Z 35013KT 01/M07 A3012 RMK A01 T00071065  RH  059%=      5-min Rain = 0
KAM1 241239Z 35014KT 01/M07 A3012 RMK A01 T00071065  RH  059%=      5-min Rain = 0
KAM1 241240Z 35014KT 01/M07 A3012 RMK A01 T00061065  RH  059%=      5-min Rain = 0
KAM1 241241Z 35015KT 01/M07 A3012 RMK A01 T00051066  RH  059%=      5-min Rain = 0
KAM1 241242Z 35013KT 01/M07 A3012 RMK A01 T00051066  RH  059%=      5-min Rain = 0
KAM1 241243Z 35016KT 01/M07 A3012 RMK A01 T00051066  RH  059%=      5-min Rain = 0
KAM1 241244Z 35015KT 01/M07 A3012 RMK A01 T00051066  RH  059%=      5-min Rain = 0
KAM1 241245Z 35013KT 01/M07 A3012 RMK A01 T00051066  RH  059%=      5-min Rain = 0
KAM1 241246Z 35013KT 01/M07 A3012 RMK A01 T00051066  RH  059%=      5-min Rain = 0
KAM1 241247Z 35014KT 00/M07 A3012 RMK A01 T00041066  RH  059%=      5-min Rain = 0
KAM1 241248Z 35014KT 00/M07 A3012 RMK A01 T00031067  RH  059%=      5-min Rain = 0
KAM1 241249Z 36014KT 00/M07 A3012 RMK A01 T00031067  RH  059%=      5-min Rain = 0
KAM1 241250Z 35014KT 00/M07 A3012 RMK A01 T00041066  RH  059%=      5-min Rain = 0
KAM1 241251Z 35014KT 00/M07 A3012 RMK A01 T00031067  RH  059%=      5-min Rain = 0
KAM1 241252Z 35015KT 00/M07 A3012 RMK A01 T00031067  RH  059%=      5-min Rain = 0
KAM1 241253Z 35013KT 00/M07 A3012 RMK A01 T00041067  RH  059%=      5-min Rain = 0
KAM1 241254Z 35013KT 00/M07 A3012 RMK A01 T00041067  RH  059%=      5-min Rain = 0
KAM1 241255Z 35013KT 00/M07 A3012 RMK A01 T00031067  RH  059%=      5-min Rain = 0
KAM1 241256Z 35014KT 00/M07 A3013 RMK A01 T00031067  RH  059%=      5-min Rain = 0
KAM1 241257Z 35014KT 00/M07 A3013 RMK A01 T00031067  RH  059%=      5-min Rain = 0
KAM1 241258Z 35012KT 00/M07 A3013 RMK A01 T00041067  RH  059%=      5-min Rain = 0
KAM1 241259Z 35011KT 00/M07 A3013 RMK A01 T00031067  RH  059%=      5-min Rain = 0
KAM1 241300Z 35013KT 00/M07 A3013 RMK A01 T00021068  RH  060%=      5-min Rain = 0
KAM1 241301Z 35013KT 00/M07 A3013 RMK A01 T00021067  RH  060%=      5-min Rain = 0
KAM1 241302Z 35011KT 00/M07 A3013 RMK A01 T00021067  RH  060%=      5-min Rain = 0
KAM1 241303Z 35015KT 00/M07 A3013 RMK A01 T00011068  RH  060%=      5-min Rain = 0
KAM1 241304Z 35013KT 00/M07 A3013 RMK A01 T00021067  RH  060%=      5-min Rain = 0
KAM1 241305Z 35012KT 00/M07 A3013 RMK A01 T00021067  RH  060%=      5-min Rain = 0
KAM1 241306Z 35013KT 00/M07 A3013 RMK A01 T00021068  RH  060%=      5-min Rain = 0
KAM1 241307Z 35014KT 00/M07 A3013 RMK A01 T00021068  RH  060%=      5-min Rain = 0
KAM1 241308Z 35012KT 00/M07 A3013 RMK A01 T00021068  RH  060%=      5-min Rain = 0
KAM1 241309Z 35012KT 00/M07 A3013 RMK A01 T00011068  RH  060%=      5-min Rain = 0
KAM1 241310Z 34013KT 00/M07 A3013 RMK A01 T00011068  RH  060%=      5-min Rain = 0
KAM1 241311Z 35013KT 00/07 A3013 RMK A01 T00000-68  RH  060%=      5-min Rain = 0
KAM1 241312Z 35012KT 00/07 A3013 RMK A01 T00000-68  RH  060%=      5-min Rain = 0
KAM1 241313Z 35012KT 00/07 A3014 RMK A01 T00000-68  RH  060%=      5-min Rain = 0
KAM1 241314Z 35014KT 00/07 A3014 RMK A01 T00-00-68  RH  060%=      5-min Rain = 0
KAM1 241315Z 35012KT 00/M07 A3014 RMK A01 T00011068  RH  060%=      5-min Rain = 0
KAM1 241316Z 35011KT 00/M07 A3014 RMK A01 T00011068  RH  060%=      5-min Rain = 0
KAM1 241317Z 35012KT 00/07 A3014 RMK A01 T00000-69  RH  060%=      5-min Rain = 0
KAM1 241318Z 35010KT 00/07 A3014 RMK A01 T00000-69  RH  060%=      5-min Rain = 0
KAM1 241319Z 35011KT 00/07 A3014 RMK A01 T00-00-69  RH  060%=      5-min Rain = 0
KAM1 241320Z 35013KT M00/M07 A3014 RMK A01 T10011069  RH  060%=      5-min Rain = 0
KAM1 241321Z 35014KT M00/M07 A3014 RMK A01 T10011069  RH  060%=      5-min Rain = 0
KAM1 241322Z 34012KT M00/M07 A3014 RMK A01 T10011069  RH  060%=      5-min Rain = 0
KAM1 241323Z 35012KT 00/07 A3014 RMK A01 T00-00-69  RH  060%=      5-min Rain = 0
KAM1 241324Z 35013KT M00/M07 A3014 RMK A01 T10011069  RH  060%=      5-min Rain = 0
KAM1 241325Z 35012KT M00/M07 A3014 RMK A01 T10011069  RH  060%=      5-min Rain = 0
KAM1 241326Z 35012KT M00/M07 A3014 RMK A01 T10011069  RH  060%=      5-min Rain = 0
KAM1 241327Z 35013G18KT M00/M07 A3014 RMK A01 T10011069  RH  060%=      5-min Rain = 0
KAM1 241328Z 35012KT M00/M07 A3014 RMK A01 T10011069  RH  060%=      5-min Rain = 0
KAM1 241329Z 35013KT M00/M07 A3014 RMK A01 T10011069  RH  060%=      5-min Rain = 0
KAM1 241330Z 34013KT M00/M07 A3014 RMK A01 T10011069  RH  060%=      5-min Rain = 0
KAM1 241331Z 35012KT M00/M07 A3015 RMK A01 T10011069  RH  060%=      5-min Rain = 0
KAM1 241332Z 35011KT 00/07 A3015 RMK A01 T00-00-68  RH  060%=      5-min Rain = 0
KAM1 241333Z 35014KT M00/M07 A3015 RMK A01 T10011069  RH  060%=      5-min Rain = 0
KAM1 241334Z 35012KT M00/M07 A3015 RMK A01 T10021069  RH  060%=      5-min Rain = 0
KAM1 241335Z 35012KT M00/M07 A3015 RMK A01 T10021069  RH  060%=      5-min Rain = 0
KAM1 241336Z 34013KT M00/M07 A3015 RMK A01 T10021069  RH  060%=      5-min Rain = 0
KAM1 241337Z 34012KT M00/M07 A3015 RMK A01 T10021069  RH  060%=      5-min Rain = 0
KAM1 241338Z 35011KT M00/M07 A3015 RMK A01 T10011069  RH  060%=      5-min Rain = 0
KAM1 241339Z 35013KT M00/M07 A3015 RMK A01 T10011068  RH  060%=      5-min Rain = 0
KAM1 241340Z 34012KT 00/07 A3015 RMK A01 T00-00-68  RH  060%=      5-min Rain = 0
KAM1 241341Z 35013KT 00/07 A3015 RMK A01 T00-00-68  RH  060%=      5-min Rain = 0
KAM1 241342Z 34013KT 00/07 A3015 RMK A01 T00000-68  RH  060%=      5-min Rain = 0
KAM1 241343Z 35012KT 00/M07 A3015 RMK A01 T00011068  RH  060%=      5-min Rain = 0
KAM1 241344Z 34013KT 00/M07 A3016 RMK A01 T00011068  RH  060%=      5-min Rain = 0
KAM1 241345Z 34012KT 00/M07 A3016 RMK A01 T00011068  RH  060%=      5-min Rain = 0
KAM1 241346Z 35013KT 00/M07 A3016 RMK A01 T00011068  RH  060%=      5-min Rain = 0
KAM1 241347Z 34010KT 00/M07 A3016 RMK A01 T00011068  RH  060%=      5-min Rain = 0
KAM1 241348Z 34011KT 00/M07 A3016 RMK A01 T00011068  RH  060%=      5-min Rain = 0
KAM1 241349Z 34014KT 00/M07 A3016 RMK A01 T00011068  RH  060%=      5-min Rain = 0
KAM1 241350Z 34011KT 00/M07 A3016 RMK A01 T00021068  RH  060%=      5-min Rain = 0
KAM1 241351Z 34011KT 00/M07 A3016 RMK A01 T00021068  RH  060%=      5-min Rain = 0
KAM1 241352Z 34013G18KT 00/M07 A3016 RMK A01 T00021068  RH  060%=      5-min Rain = 0
KAM1 241353Z 34014KT 00/M07 A3016 RMK A01 T00031067  RH  059%=      5-min Rain = 0
KAM1 241354Z 34013KT 00/M07 A3016 RMK A01 T00031067  RH  059%=      5-min Rain = 0
KAM1 241355Z 35012KT 00/M07 A3016 RMK A01 T00031067  RH  059%=      5-min Rain = 0
KAM1 241356Z 34010KT 00/M07 A3016 RMK A01 T00031067  RH  059%=      5-min Rain = 0
KAM1 241357Z 34011KT 00/M07 A3016 RMK A01 T00031067  RH  059%=      5-min Rain = 0
KAM1 241358Z 35012KT 00/M07 A3016 RMK A01 T00041066  RH  059%=      5-min Rain = 0
KAM1 241359Z 34013KT 00/M07 A3017 RMK A01 T00041067  RH  059%=      5-min Rain = 0
KAM1 241400Z 34013KT 00/M07 A3017 RMK A01 T00041067  RH  059%=      5-min Rain = 0
KAM1 241401Z 34013KT 00/M07 A3017 RMK A01 T00041067  RH  059%=      5-min Rain = 0
KAM1 241402Z 35012KT 00/M07 A3017 RMK A01 T00041067  RH  059%=      5-min Rain = 0
KAM1 241403Z 35012KT 01/M07 A3017 RMK A01 T00051067  RH  059%=      5-min Rain = 0
KAM1 241404Z 35013KT 01/M07 A3017 RMK A01 T00051067  RH  059%=      5-min Rain = 0
KAM1 241405Z 35012KT 01/M07 A3017 RMK A01 T00051067  RH  058%=      5-min Rain = 0
KAM1 241406Z 35014KT 01/M07 A3017 RMK A01 T00061067  RH  058%=      5-min Rain = 0
KAM1 241407Z 35011KT 01/M07 A3017 RMK A01 T00061066  RH  058%=      5-min Rain = 0
KAM1 241408Z 35010KT 01/M07 A3017 RMK A01 T00071066  RH  058%=      5-min Rain = 0
KAM1 241409Z 35014KT 01/M07 A3017 RMK A01 T00071066  RH  058%=      5-min Rain = 0
KAM1 241410Z 35014KT 01/M07 A3017 RMK A01 T00081066  RH  058%=      5-min Rain = 0
KAM1 241411Z 35014KT 01/M07 A3017 RMK A01 T00081067  RH  057%=      5-min Rain = 0
KAM1 241412Z 35012KT 01/M07 A3017 RMK A01 T00081066  RH  057%=      5-min Rain = 0
KAM1 241413Z 35012KT 01/M07 A3017 RMK A01 T00091066  RH  057%=      5-min Rain = 0
KAM1 241414Z 35013KT 01/M07 A3017 RMK A01 T00091066  RH  057%=      5-min Rain = 0
KAM1 241415Z 35011KT 01/M07 A3017 RMK A01 T00091066  RH  057%=      5-min Rain = 0
KAM1 241416Z 35013KT 01/M07 A3018 RMK A01 T00091066  RH  057%=      5-min Rain = 0
KAM1 241417Z 35016KT 01/M07 A3018 RMK A01 T00101066  RH  057%=      5-min Rain = 0
KAM1 241418Z 35013KT 01/M07 A3018 RMK A01 T00101066  RH  057%=      5-min Rain = 0
KAM1 241419Z 35013KT 01/M07 A3018 RMK A01 T00101066  RH  057%=      5-min Rain = 0
KAM1 241420Z 35015KT 01/M07 A3018 RMK A01 T00111065  RH  057%=      5-min Rain = 0
KAM1 241421Z 35015KT 01/M07 A3018 RMK A01 T00111066  RH  056%=      5-min Rain = 0
KAM1 241422Z 35015KT 01/M07 A3018 RMK A01 T00111066  RH  056%=      5-min Rain = 0
KAM1 241423Z 35014KT 01/M07 A3018 RMK A01 T00121066  RH  056%=      5-min Rain = 0
KAM1 241424Z 35014KT 01/M07 A3018 RMK A01 T00121066  RH  056%=      5-min Rain = 0
KAM1 241425Z 35011G16KT 01/M07 A3019 RMK A01 T00121066  RH  056%=      5-min Rain = 0
KAM1 241426Z 35013KT 01/M07 A3019 RMK A01 T00131065  RH  056%=      5-min Rain = 0
KAM1 241427Z 35012KT 01/M07 A3019 RMK A01 T00131066  RH  056%=      5-min Rain = 0
KAM1 241428Z 36015KT 01/M07 A3019 RMK A01 T00141065  RH  056%=      5-min Rain = 0
KAM1 241429Z 35017KT 01/M07 A3019 RMK A01 T00141066  RH  055%=      5-min Rain = 0
KAM1 241430Z 35015KT 01/M07 A3019 RMK A01 T00131067  RH  055%=      5-min Rain = 0
KAM1 241431Z 35011KT 01/M07 A3019 RMK A01 T00141066  RH  055%=      5-min Rain = 0
KAM1 241432Z 35014KT 02/M06 A3019 RMK A01 T00151064  RH  056%=      5-min Rain = 0
KAM1 241433Z 35013KT 02/M07 A3019 RMK A01 T00151066  RH  055%=      5-min Rain = 0
KAM1 241434Z 35015KT 02/M07 A3019 RMK A01 T00151066  RH  055%=      5-min Rain = 0
KAM1 241435Z 35015KT 02/M07 A3019 RMK A01 T00151066  RH  055%=      5-min Rain = 0
KAM1 241436Z 35014KT 02/M07 A3019 RMK A01 T00151066  RH  055%=      5-min Rain = 0
KAM1 241437Z 35014KT 02/M07 A3019 RMK A01 T00161066  RH  054%=      5-min Rain = 0
KAM1 241438Z 35015KT 02/M07 A3019 RMK A01 T00161066  RH  054%=      5-min Rain = 0
KAM1 241439Z 35015KT 02/M07 A3019 RMK A01 T00161067  RH  054%=      5-min Rain = 0
KAM1 241440Z 36015KT 02/M07 A302 RMK A01 T00161066  RH  054%=      5-min Rain = 0
KAM1 241441Z 00015KT 02/M07 A302 RMK A01 T00171066  RH  054%=      5-min Rain = 0
KAM1 241442Z 36014KT 02/M07 A302 RMK A01 T00171066  RH  054%=      5-min Rain = 0
KAM1 241443Z 00017KT 02/M07 A302 RMK A01 T00181066  RH  054%=      5-min Rain = 0
KAM1 241444Z 00017KT 02/M07 A302 RMK A01 T00181067  RH  054%=      5-min Rain = 0
KAM1 241445Z 00016KT 02/M07 A302 RMK A01 T00181067  RH  053%=      5-min Rain = 0
KAM1 241446Z 36015KT 02/M07 A302 RMK A01 T00181066  RH  053%=      5-min Rain = 0
KAM1 241447Z 36014KT 02/M07 A302 RMK A01 T00191065  RH  054%=      5-min Rain = 0
KAM1 241448Z 36013KT 02/M06 A302 RMK A01 T00211064  RH  054%=      5-min Rain = 0
KAM1 241449Z 36014G19KT 02/M06 A3021 RMK A01 T00221064  RH  053%=      5-min Rain = 0
KAM1 241450Z 36015KT 02/M07 A3021 RMK A01 T00221065  RH  053%=      5-min Rain = 0
KAM1 241451Z 00015KT 02/M07 A3021 RMK A01 T00221065  RH  053%=      5-min Rain = 0
KAM1 241452Z 36018KT 02/M07 A3021 RMK A01 T00211066  RH  053%=      5-min Rain = 0
KAM1 241453Z 36014KT 02/M07 A3021 RMK A01 T00201067  RH  053%=      5-min Rain = 0
KAM1 241454Z 35016KT 02/M07 A3021 RMK A01 T00201066  RH  053%=      5-min Rain = 0
KAM1 241455Z 35014KT 02/M07 A3021 RMK A01 T00201066  RH  053%=      5-min Rain = 0
KAM1 241456Z 00016KT 02/M07 A3021 RMK A01 T00211065  RH  053%=      5-min Rain = 0
KAM1 241457Z 36014KT 02/M07 A3021 RMK A01 T00211065  RH  053%=      5-min Rain = 0
KAM1 241458Z 35015KT 02/M07 A3021 RMK A01 T00221065  RH  053%=      5-min Rain = 0
KAM1 241459Z 36015KT 02/M06 A3021 RMK A01 T00221064  RH  053%=      5-min Rain = 0
KAM1 241500Z 36013KT 02/M06 A3021 RMK A01 T00221064  RH  053%=      5-min Rain = 0
KAM1 241501Z 36013KT 02/M06 A3021 RMK A01 T00231064  RH  053%=      5-min Rain = 0
KAM1 241502Z 00013KT 02/M06 A3021 RMK A01 T00231063  RH  053%=      5-min Rain = 0
KAM1 241503Z 00014KT 02/M06 A3021 RMK A01 T00241063  RH  053%=      5-min Rain = 0
KAM1 241504Z 36015KT 03/M06 A3021 RMK A01 T00251062  RH  053%=      5-min Rain = 0
KAM1 241505Z 01014KT 03/M06 A3021 RMK A01 T00251063  RH  053%=      5-min Rain = 0
KAM1 241506Z 01015KT 03/M06 A3021 RMK A01 T00261061  RH  053%=      5-min Rain = 0
KAM1 241507Z 00016KT 03/M06 A3021 RMK A01 T00261062  RH  052%=      5-min Rain = 0
KAM1 241508Z 36015KT 03/M06 A3021 RMK A01 T00261063  RH  052%=      5-min Rain = 0
KAM1 241509Z 36013KT 03/M06 A3022 RMK A01 T00261062  RH  052%=      5-min Rain = 0
KAM1 241510Z 00012KT 03/M06 A3022 RMK A01 T00281060  RH  052%=      5-min Rain = 0
KAM1 241511Z 00015KT 03/M06 A3022 RMK A01 T00291060  RH  052%=      5-min Rain = 0
KAM1 241512Z 00018KT 03/M06 A3022 RMK A01 T00291062  RH  051%=      5-min Rain = 0
KAM1 241513Z 01016G21KT 03/M06 A3022 RMK A01 T00281063  RH  051%=      5-min Rain = 0
KAM1 241514Z 01018KT 03/M06 A3022 RMK A01 T00291063  RH  051%=      5-min Rain = 0
KAM1 241515Z 36013KT 03/M06 A3022 RMK A01 T00281063  RH  051%=      5-min Rain = 0
KAM1 241516Z 00011G16KT 03/M06 A3022 RMK A01 T00301060  RH  052%=      5-min Rain = 0
KAM1 241517Z 01015KT 03/M06 A3022 RMK A01 T00331059  RH  051%=      5-min Rain = 0
KAM1 241518Z 01013KT 03/M06 A3022 RMK A01 T00331060  RH  050%=      5-min Rain = 0
KAM1 241519Z 35015KT 03/M06 A3022 RMK A01 T00321061  RH  050%=      5-min Rain = 0
KAM1 241520Z 00016KT 03/M06 A3023 RMK A01 T00321062  RH  050%=      5-min Rain = 0
KAM1 241521Z 00015KT 03/M06 A3023 RMK A01 T00321061  RH  050%=      5-min Rain = 0
KAM1 241522Z 36013KT 03/M06 A3023 RMK A01 T00321061  RH  050%=      5-min Rain = 0
KAM1 241523Z 36016KT 03/M06 A3023 RMK A01 T00331061  RH  050%=      5-min Rain = 0
KAM1 241524Z 01014KT 03/M06 A3023 RMK A01 T00341062  RH  050%=      5-min Rain = 0
KAM1 241525Z 35013KT 03/M06 A3023 RMK A01 T00331062  RH  050%=      5-min Rain = 0
KAM1 241526Z 00014KT 03/M06 A3023 RMK A01 T00341061  RH  050%=      5-min Rain = 0
KAM1 241527Z 01016KT 03/M06 A3023 RMK A01 T00341061  RH  050%=      5-min Rain = 0
KAM1 241528Z 01018KT 03/M06 A3023 RMK A01 T00341063  RH  049%=      5-min Rain = 0
KAM1 241529Z 01015KT 03/M06 A3023 RMK A01 T00331063  RH  049%=      5-min Rain = 0
KAM1 241530Z 01014KT 03/M06 A3023 RMK A01 T00331062  RH  050%=      5-min Rain = 0
KAM1 241531Z 00016KT 04/M06 A3023 RMK A01 T00361061  RH  049%=      5-min Rain = 0
KAM1 241532Z 00016KT 04/M06 A3023 RMK A01 T00351063  RH  049%=      5-min Rain = 0
KAM1 241533Z 36016KT 03/M06 A3023 RMK A01 T00341063  RH  049%=      5-min Rain = 0
KAM1 241534Z 36014KT 03/M06 A3023 RMK A01 T00341063  RH  049%=      5-min Rain = 0
KAM1 241535Z 01016KT 04/M06 A3023 RMK A01 T00351062  RH  049%=      5-min Rain = 0
KAM1 241536Z 01014KT 04/M06 A3023 RMK A01 T00361062  RH  049%=      5-min Rain = 0
KAM1 241537Z 00014KT 04/M06 A3023 RMK A01 T00361061  RH  049%=      5-min Rain = 0
KAM1 241538Z 36016KT 04/M06 A3023 RMK A01 T00381060  RH  049%=      5-min Rain = 0
KAM1 241539Z 01014KT 04/M06 A3023 RMK A01 T00391061  RH  048%=      5-min Rain = 0
KAM1 241540Z 36015KT 04/M06 A3023 RMK A01 T00391060  RH  048%=      5-min Rain = 0
KAM1 241541Z 36016KT 04/M06 A3023 RMK A01 T00401061  RH  048%=      5-min Rain = 0
KAM1 241542Z 36018KT 04/M06 A3023 RMK A01 T00391063  RH  048%=      5-min Rain = 0
KAM1 241543Z 36015KT 04/M06 A3023 RMK A01 T00371064  RH  048%=      5-min Rain = 0
KAM1 241544Z 01014KT 04/M06 A3023 RMK A01 T00371062  RH  048%=      5-min Rain = 0
KAM1 241545Z 00014KT 04/M06 A3023 RMK A01 T00391062  RH  048%=      5-min Rain = 0
KAM1 241546Z 01016KT 04/M06 A3023 RMK A01 T00401061  RH  048%=      5-min Rain = 0
KAM1 241547Z 00014KT 04/M06 A3023 RMK A01 T00391063  RH  047%=      5-min Rain = 0
KAM1 241548Z 01015KT 04/M06 A3023 RMK A01 T00381062  RH  048%=      5-min Rain = 0
KAM1 241549Z 01015KT 04/M06 A3023 RMK A01 T00401061  RH  048%=      5-min Rain = 0
KAM1 241550Z 02014KT 04/M06 A3023 RMK A01 T00401062  RH  047%=      5-min Rain = 0
KAM1 241551Z 00013KT 04/M06 A3023 RMK A01 T00401062  RH  047%=      5-min Rain = 0
KAM1 241552Z 36014KT 04/M06 A3023 RMK A01 T00431059  RH  048%=      5-min Rain = 0
KAM1 241553Z 36015KT 04/M06 A3023 RMK A01 T00441061  RH  047%=      5-min Rain = 0
KAM1 241554Z 00014KT 04/M06 A3023 RMK A01 T00411063  RH  046%=      5-min Rain = 0
KAM1 241555Z 00016KT 04/M06 A3023 RMK A01 T00401063  RH  047%=      5-min Rain = 0
KAM1 241556Z 00014G19KT 04/M06 A3023 RMK A01 T00401064  RH  047%=      5-min Rain = 0
KAM1 241557Z 36013KT 04/M06 A3023 RMK A01 T00421061  RH  047%=      5-min Rain = 0
KAM1 241558Z 00012KT 04/M06 A3023 RMK A01 T00431061  RH  047%=      5-min Rain = 0
KAM1 241559Z 02012KT 05/M06 A3024 RMK A01 T00461058  RH  047%=      5-min Rain = 0
KAM1 241600Z 02014KT 05/M06 A3024 RMK A01 T00471060  RH  046%=      5-min Rain = 0
KAM1 241601Z 02013KT 05/M06 A3024 RMK A01 T00461061  RH  046%=      5-min Rain = 0
KAM1 241602Z 02014KT 05/M06 A3024 RMK A01 T00451062  RH  046%=      5-min Rain = 0
KAM1 241603Z 02013KT 04/M06 A3023 RMK A01 T00441064  RH  045%=      5-min Rain = 0
KAM1 241604Z 02016KT 04/M06 A3023 RMK A01 T00431064  RH  046%=      5-min Rain = 0
KAM1 241605Z 02016G21KT 04/M06 A3023 RMK A01 T00421063  RH  046%=      5-min Rain = 0
KAM1 241606Z 02016KT 04/M06 A3024 RMK A01 T00441063  RH  046%=      5-min Rain = 0
KAM1 241607Z 01015KT 04/M06 A3023 RMK A01 T00441064  RH  046%=      5-min Rain = 0
KAM1 241608Z 02015KT 04/M06 A3024 RMK A01 T00441063  RH  046%=      5-min Rain = 0
KAM1 241609Z 02015KT 05/M06 A3024 RMK A01 T00461062  RH  045%=      5-min Rain = 0
KAM1 241610Z 02014KT 05/M06 A3023 RMK A01 T00451063  RH  045%=      5-min Rain = 0
KAM1 241611Z 02014KT 05/M06 A3023 RMK A01 T00451062  RH  046%=      5-min Rain = 0
KAM1 241612Z 01015KT 05/M06 A3023 RMK A01 T00461062  RH  045%=      5-min Rain = 0
KAM1 241613Z 01016KT 05/M06 A3023 RMK A01 T00471062  RH  045%=      5-min Rain = 0
KAM1 241614Z 01015KT 05/M06 A3023 RMK A01 T00481063  RH  044%=      5-min Rain = 0
KAM1 241615Z 01013KT 05/M06 A3023 RMK A01 T00491062  RH  045%=      5-min Rain = 0
KAM1 241616Z 00014KT 05/M06 A3023 RMK A01 T00501061  RH  044%=      5-min Rain = 0
KAM1 241617Z 01012KT 05/M06 A3023 RMK A01 T00491062  RH  044%=      5-min Rain = 0
KAM1 241618Z 01013KT 05/M06 A3023 RMK A01 T00511061  RH  044%=      5-min Rain = 0
KAM1 241619Z 02013KT 05/M06 A3023 RMK A01 T00501063  RH  044%=      5-min Rain = 0
KAM1 241620Z 36015KT 05/M06 A3023 RMK A01 T00481063  RH  044%=      5-min Rain = 0
KAM1 241621Z 01013KT 05/M07 A3023 RMK A01 T00471065  RH  044%=      5-min Rain = 0
KAM1 241622Z 02011KT 05/M06 A3023 RMK A01 T00461064  RH  045%=      5-min Rain = 0
KAM1 241623Z 02014KT 05/M06 A3023 RMK A01 T00501060  RH  045%=      5-min Rain = 0
KAM1 241624Z 00013KT 05/M06 A3023 RMK A01 T00531061  RH  044%=      5-min Rain = 0
KAM1 241625Z 36013KT 05/M06 A3023 RMK A01 T00541061  RH  043%=      5-min Rain = 0
KAM1 241626Z 01014KT 05/M06 A3023 RMK A01 T00531062  RH  043%=      5-min Rain = 0
KAM1 241627Z 02013G18KT 05/M06 A3023 RMK A01 T00511064  RH  043%=      5-min Rain = 0
KAM1 241628Z 01014KT 05/M06 A3023 RMK A01 T00511063  RH  043%=      5-min Rain = 0
KAM1 241629Z 01014KT 05/M06 A3023 RMK A01 T00511063  RH  044%=      5-min Rain = 0
KAM1 241630Z 02012KT 05/M06 A3023 RMK A01 T00531062  RH  043%=      5-min Rain = 0
KAM1 241631Z 01016KT 05/M06 A3023 RMK A01 T00531063  RH  043%=      5-min Rain = 0
KAM1 241632Z 02013KT 06/M06 A3023 RMK A01 T00551063  RH  043%=      5-min Rain = 0
KAM1 241633Z 02014KT 06/M06 A3023 RMK A01 T00551064  RH  042%=      5-min Rain = 0
KAM1 241634Z 02012KT 06/M06 A3023 RMK A01 T00551063  RH  042%=      5-min Rain = 0
KAM1 241635Z 02013KT 06/M06 A3023 RMK A01 T00561063  RH  042%=      5-min Rain = 0
KAM1 241636Z 01011KT 06/M06 A3023 RMK A01 T00551064  RH  042%=      5-min Rain = 0
KAM1 241637Z 00014KT 06/M06 A3022 RMK A01 T00571061  RH  042%=      5-min Rain = 0
KAM1 241638Z 01015KT 06/M06 A3022 RMK A01 T00581063  RH  042%=      5-min Rain = 0
KAM1 241639Z 01013KT 06/M07 A3022 RMK A01 T00561065  RH  041%=      5-min Rain = 0
KAM1 241640Z 00015KT 06/M07 A3022 RMK A01 T00551065  RH  042%=      5-min Rain = 0
KAM1 241641Z 00012KT 06/M07 A3022 RMK A01 T00551065  RH  042%=      5-min Rain = 0
KAM1 241642Z 01014KT 06/M06 A3022 RMK A01 T00561064  RH  042%=      5-min Rain = 0
KAM1 241643Z 01013KT 06/M06 A3022 RMK A01 T00601061  RH  042%=      5-min Rain = 0
KAM1 241644Z 01014KT 06/M06 A3022 RMK A01 T00601063  RH  041%=      5-min Rain = 0
KAM1 241645Z 01014KT 06/M07 A3022 RMK A01 T00581065  RH  041%=      5-min Rain = 0
KAM1 241646Z 02014KT 06/M07 A3022 RMK A01 T00571065  RH  041%=      5-min Rain = 0
KAM1 241647Z 02012KT 06/M07 A3022 RMK A01 T00581065  RH  041%=      5-min Rain = 0
KAM1 241648Z 02013KT 06/M06 A3022 RMK A01 T00591064  RH  041%=      5-min Rain = 0
KAM1 241649Z 02013KT 06/M06 A3022 RMK A01 T00611062  RH  041%=      5-min Rain = 0
KAM1 241650Z 02012KT 06/M06 A3022 RMK A01 T00611064  RH  040%=      5-min Rain = 0
KAM1 241651Z 02011KT 06/M06 A3022 RMK A01 T00611062  RH  041%=      5-min Rain = 0
KAM1 241652Z 03012KT 07/M06 A3023 RMK A01 T00661059  RH  040%=      5-min Rain = 0
KAM1 241653Z 03011KT 07/M06 A3023 RMK A01 T00661063  RH  039%=      5-min Rain = 0
KAM1 241654Z 02014KT 07/M06 A3023 RMK A01 T00651063  RH  039%=      5-min Rain = 0
KAM1 241655Z 03012KT 06/M06 A3023 RMK A01 T00641064  RH  039%=      5-min Rain = 0
KAM1 241656Z 02012KT 06/M07 A3023 RMK A01 T00611066  RH  040%=      5-min Rain = 0
KAM1 241657Z 02013KT 06/M07 A3022 RMK A01 T00611065  RH  040%=      5-min Rain = 0
KAM1 241658Z 02013KT 06/M07 A3022 RMK A01 T00611066  RH  040%=      5-min Rain = 0
KAM1 241659Z 03012KT 06/M07 A3022 RMK A01 T00611066  RH  040%=      5-min Rain = 0
KAM1 241700Z 03013KT 06/M07 A3022 RMK A01 T00621065  RH  040%=      5-min Rain = 0
KAM1 241701Z 02012KT 06/M06 A3022 RMK A01 T00631064  RH  040%=      5-min Rain = 0
KAM1 241702Z 02012KT 06/M07 A3022 RMK A01 T00631066  RH  039%=      5-min Rain = 0
KAM1 241703Z 01013KT 06/M07 A3022 RMK A01 T00641065  RH  039%=      5-min Rain = 0
KAM1 241704Z 02014KT 07/M06 A3022 RMK A01 T00651064  RH  039%=      5-min Rain = 0
KAM1 241705Z 02013KT 07/M06 A3022 RMK A01 T00661064  RH  039%=      5-min Rain = 0
KAM1 241706Z 02012KT 07/M07 A3022 RMK A01 T00661065  RH  039%=      5-min Rain = 0
KAM1 241707Z 02013KT 07/M06 A3022 RMK A01 T00661064  RH  039%=      5-min Rain = 0
KAM1 241708Z 03013KT 07/M06 A3022 RMK A01 T00651064  RH  039%=      5-min Rain = 0
KAM1 241709Z 03011KT 07/M06 A3022 RMK A01 T00661064  RH  039%=      5-min Rain = 0
KAM1 241710Z 01013KT 07/M06 A3022 RMK A01 T00661063  RH  039%=      5-min Rain = 0
KAM1 241711Z 02011KT 07/M06 A3022 RMK A01 T00671063  RH  039%=      5-min Rain = 0
KAM1 241712Z 04010KT 07/M06 A3022 RMK A01 T00701060  RH  039%=      5-min Rain = 0
KAM1 241713Z 03012KT 07/M06 A3022 RMK A01 T00721060  RH  038%=      5-min Rain = 0
KAM1 241714Z 04011KT 07/M06 A3022 RMK A01 T00711064  RH  038%=      5-min Rain = 0
KAM1 241715Z 04011KT 07/M07 A3022 RMK A01 T00681067  RH  038%=      5-min Rain = 0
KAM1 241716Z 02012KT 07/M07 A3022 RMK A01 T00671065  RH  038%=      5-min Rain = 0
KAM1 241717Z 01012KT 07/M07 A3022 RMK A01 T00691066  RH  038%=      5-min Rain = 0
KAM1 241718Z 02010KT 07/M07 A3022 RMK A01 T00651070  RH  037%=      5-min Rain = 0
KAM1 241719Z 02012KT 06/M07 A3022 RMK A01 T00641068  RH  038%=      5-min Rain = 0
KAM1 241720Z 03011KT 07/M07 A3022 RMK A01 T00671065  RH  038%=      5-min Rain = 0
KAM1 241721Z 02010KT 07/M07 A3022 RMK A01 T00671065  RH  038%=      5-min Rain = 0
KAM1 241722Z 03011KT 07/M06 A3022 RMK A01 T00711060  RH  039%=      5-min Rain = 0
KAM1 241723Z 02009KT 07/M06 A3022 RMK A01 T00741061  RH  038%=      5-min Rain = 0
KAM1 241724Z 02012KT 07/M06 A3022 RMK A01 T00731063  RH  037%=      5-min Rain = 0
KAM1 241725Z 02012KT 07/M06 A3022 RMK A01 T00731062  RH  038%=      5-min Rain = 0
KAM1 241726Z 02010KT 07/M07 A3022 RMK A01 T00711066  RH  037%=      5-min Rain = 0
KAM1 241727Z 02011KT 07/M07 A3022 RMK A01 T00691065  RH  038%=      5-min Rain = 0
KAM1 241728Z 02011KT 07/M06 A3023 RMK A01 T00711064  RH  038%=      5-min Rain = 0
KAM1 241729Z 02009KT 07/M07 A3023 RMK A01 T00711065  RH  037%=      5-min Rain = 0
KAM1 241730Z 02010KT 07/M07 A3022 RMK A01 T00711065  RH  037%=      5-min Rain = 0
KAM1 241731Z 02012KT 08/M06 A3023 RMK A01 T00751061  RH  037%=      5-min Rain = 0
KAM1 241732Z 02011KT 08/M06 A3023 RMK A01 T00771064  RH  036%=      5-min Rain = 0
KAM1 241733Z 03012KT 07/M07 A3023 RMK A01 T00741066  RH  036%=      5-min Rain = 0
KAM1 241734Z 03010KT 07/M07 A3023 RMK A01 T00741065  RH  037%=      5-min Rain = 0
KAM1 241735Z 03007KT 07/M07 A3023 RMK A01 T00731065  RH  037%=      5-min Rain = 0
KAM1 241736Z 04006KT 07/M06 A3023 RMK A01 T00731063  RH  037%=      5-min Rain = 0
KAM1 241737Z 02010KT 08/M06 A3023 RMK A01 T00751060  RH  038%=      5-min Rain = 0
KAM1 241738Z 03011G16KT 08/M06 A3023 RMK A01 T00781062  RH  036%=      5-min Rain = 0
KAM1 241739Z 02011KT 08/M06 A3023 RMK A01 T00771063  RH  036%=      5-min Rain = 0
KAM1 241740Z 02008KT 08/M07 A3023 RMK A01 T00751068  RH  036%=      5-min Rain = 0
KAM1 241741Z 01008KT 07/M07 A3023 RMK A01 T00731067  RH  036%=      5-min Rain = 0
KAM1 241742Z 02009KT 07/M06 A3023 RMK A01 T00741064  RH  037%=      5-min Rain = 0
KAM1 241743Z 03012KT 08/M06 A3023 RMK A01 T00761063  RH  037%=      5-min Rain = 0
KAM1 241744Z 02011KT 08/M06 A3023 RMK A01 T00771063  RH  036%=      5-min Rain = 0
KAM1 241745Z 02012KT 08/M06 A3023 RMK A01 T00781064  RH  036%=      5-min Rain = 0
KAM1 241746Z 01011KT 08/M06 A3023 RMK A01 T00781064  RH  036%=      5-min Rain = 0
KAM1 241747Z 02009KT 08/M06 A3022 RMK A01 T00771064  RH  036%=      5-min Rain = 0
KAM1 241748Z 02008KT 08/M06 A3022 RMK A01 T00781063  RH  036%=      5-min Rain = 0
KAM1 241749Z 03010KT 08/M06 A3022 RMK A01 T00781062  RH  036%=      5-min Rain = 0
KAM1 241750Z 03012KT 08/M06 A3022 RMK A01 T00821060  RH  036%=      5-min Rain = 0
KAM1 241751Z 03008G13KT 08/M07 A3022 RMK A01 T00811065  RH  035%=      5-min Rain = 0
KAM1 241752Z 00011KT 08/M06 A3022 RMK A01 T00801064  RH  035%=      5-min Rain = 0
KAM1 241753Z 01013G18KT 08/M06 A3022 RMK A01 T00821062  RH  036%=      5-min Rain = 0
KAM1 241754Z 03012KT 08/M07 A3022 RMK A01 T00811065  RH  035%=      5-min Rain = 0
KAM1 241755Z 01011KT 08/M07 A3022 RMK A01 T00781065  RH  035%=      5-min Rain = 0
KAM1 241756Z 01012KT 08/M06 A3022 RMK A01 T00801062  RH  036%=      5-min Rain = 0
KAM1 241757Z 00013KT 08/M06 A3022 RMK A01 T00821062  RH  035%=      5-min Rain = 0
KAM1 241758Z 00012KT 09/M06 A3022 RMK A01 T00851061  RH  035%=      5-min Rain = 0
KAM1 241759Z 01011KT 08/M06 A3022 RMK A01 T00831064  RH  035%=      5-min Rain = 0
KAM1 241800Z 03011KT 08/M06 A3022 RMK A01 T00811063  RH  035%=      5-min Rain = 0
KAM1 241801Z 04012KT 08/M06 A3022 RMK A01 T00841062  RH  035%=      5-min Rain = 0
KAM1 241802Z 02011KT 08/M07 A3022 RMK A01 T00831065  RH  034%=      5-min Rain = 0
KAM1 241803Z 02008KT 08/M07 A3022 RMK A01 T00821066  RH  035%=      5-min Rain = 0
KAM1 241804Z 01010KT 08/M06 A3022 RMK A01 T00831063  RH  035%=      5-min Rain = 0
KAM1 241805Z 02012KT 08/M06 A3022 RMK A01 T00841063  RH  035%=      5-min Rain = 0
KAM1 241806Z 02011KT 09/M06 A3022 RMK A01 T00851063  RH  034%=      5-min Rain = 0
KAM1 241807Z 01007KT 09/M06 A3022 RMK A01 T00851062  RH  035%=      5-min Rain = 0
KAM1 241808Z 00010KT 09/M06 A3022 RMK A01 T00891060  RH  034%=      5-min Rain = 0
KAM1 241809Z 01007KT 09/M07 A3022 RMK A01 T00871067  RH  033%=      5-min Rain = 0
KAM1 241810Z 02010KT 08/M07 A3022 RMK A01 T00841066  RH  034%=      5-min Rain = 0
KAM1 241811Z 03013KT 09/M07 A3022 RMK A01 T00861067  RH  033%=      5-min Rain = 0
KAM1 241812Z 04010KT 09/M07 A3022 RMK A01 T00861068  RH  033%=      5-min Rain = 0
KAM1 241813Z 04010KT 09/M07 A3022 RMK A01 T00871068  RH  033%=      5-min Rain = 0
KAM1 241814Z 01010KT 09/M07 A3022 RMK A01 T00871072  RH  032%=      5-min Rain = 0
KAM1 241815Z 01010KT 09/M08 A3022 RMK A01 T00861075  RH  031%=      5-min Rain = 0
KAM1 241816Z 01009KT 08/M08 A3022 RMK A01 T00841075  RH  031%=      5-min Rain = 0
KAM1 241817Z 01008KT 09/M07 A3022 RMK A01 T00851073  RH  032%=      5-min Rain = 0
KAM1 241818Z 00010KT 09/M07 A3021 RMK A01 T00881066  RH  033%=      5-min Rain = 0
KAM1 241819Z 01009KT 09/M07 A3021 RMK A01 T00891067  RH  032%=      5-min Rain = 0
KAM1 241820Z 00012KT 09/M07 A3021 RMK A01 T00881066  RH  033%=      5-min Rain = 0
KAM1 241821Z 01008KT 09/M07 A3021 RMK A01 T00881069  RH  032%=      5-min Rain = 0
KAM1 241822Z 02012KT 09/M07 A3021 RMK A01 T00881068  RH  033%=      5-min Rain = 0
KAM1 241823Z 03016KT 09/M07 A3021 RMK A01 T00911069  RH  032%=      5-min Rain = 0
KAM1 241824Z 03012KT 09/M08 A3021 RMK A01 T00911075  RH  030%=      5-min Rain = 0
KAM1 241825Z 04011KT 09/M07 A3021 RMK A01 T00901074  RH  031%=      5-min Rain = 0
KAM1 241826Z 03009KT 09/M07 A3021 RMK A01 T00901074  RH  031%=      5-min Rain = 0
KAM1 241827Z 04008KT 09/M07 A3021 RMK A01 T00911070  RH  031%=      5-min Rain = 0
KAM1 241828Z 03008KT 09/M07 A3021 RMK A01 T00921067  RH  032%=      5-min Rain = 0
KAM1 241829Z 02010G16KT 09/M07 A302 RMK A01 T00931065  RH  032%=      5-min Rain = 0
KAM1 241830Z 04014KT 10/M07 A3021 RMK A01 T00951065  RH  032%=      5-min Rain = 0
KAM1 241831Z 03012KT 09/M07 A3021 RMK A01 T00941071  RH  030%=      5-min Rain = 0
KAM1 241832Z 03011KT 09/M07 A302 RMK A01 T00921072  RH  031%=      5-min Rain = 0
KAM1 241833Z 04010KT 09/M07 A302 RMK A01 T00941070  RH  031%=      5-min Rain = 0
KAM1 241834Z 05007KT 10/M07 A302 RMK A01 T00971070  RH  030%=      5-min Rain = 0
KAM1 241835Z 04008KT 09/M08 A302 RMK A01 T00931079  RH  029%=      5-min Rain = 0
KAM1 241836Z 03013KT 09/M08 A302 RMK A01 T00911076  RH  030%=      5-min Rain = 0
KAM1 241837Z 03012KT 09/M08 A302 RMK A01 T00921075  RH  030%=      5-min Rain = 0
KAM1 241838Z 03011KT 09/M08 A302 RMK A01 T00931075  RH  030%=      5-min Rain = 0
KAM1 241839Z 02011KT 09/M08 A302 RMK A01 T00931077  RH  029%=      5-min Rain = 0
KAM1 241840Z 02008KT 09/M08 A302 RMK A01 T00921080  RH  029%=      5-min Rain = 0
KAM1 241841Z 02005KT 09/M08 A302 RMK A01 T00921080  RH  029%=      5-min Rain = 0
KAM1 241842Z 05008KT 09/M07 A302 RMK A01 T00921074  RH  030%=      5-min Rain = 0
KAM1 241843Z 04013KT 10/M07 A302 RMK A01 T00971071  RH  030%=      5-min Rain = 0
KAM1 241844Z 05010KT 10/M08 A302 RMK A01 T00981080  RH  028%=      5-min Rain = 0
KAM1 241845Z 05009KT 09/M08 A302 RMK A01 T00941084  RH  028%=      5-min Rain = 0
KAM1 241846Z 06008KT 09/M08 A302 RMK A01 T00941077  RH  029%=      5-min Rain = 0
KAM1 241847Z 06007KT 09/M08 A3019 RMK A01 T00941080  RH  028%=      5-min Rain = 0
KAM1 241848Z 05008KT 09/M08 A3019 RMK A01 T00911080  RH  029%=      5-min Rain = 0
KAM1 241849Z 04012KT 09/M07 A302 RMK A01 T00941073  RH  030%=      5-min Rain = 0
KAM1 241850Z 05012KT 10/M08 A302 RMK A01 T00961082  RH  027%=      5-min Rain = 0
KAM1 241851Z 05008KT 09/M09 A3019 RMK A01 T00941087  RH  027%=      5-min Rain = 0
KAM1 241852Z 05009KT 09/M08 A3019 RMK A01 T00941082  RH  028%=      5-min Rain = 0
KAM1 241853Z 02008KT 10/M07 A3019 RMK A01 T00981073  RH  029%=      5-min Rain = 0
KAM1 241854Z 02008KT 10/M08 A3019 RMK A01 T01001075  RH  028%=      5-min Rain = 0
KAM1 241855Z 03011KT 10/M08 A3019 RMK A01 T00981076  RH  029%=      5-min Rain = 0
KAM1 241856Z 04010KT 10/M08 A3019 RMK A01 T00961081  RH  028%=      5-min Rain = 0
KAM1 241857Z 05006KT 09/M08 A3019 RMK A01 T00931080  RH  029%=      5-min Rain = 0
KAM1 241858Z 03007KT 10/M08 A3019 RMK A01 T00951076  RH  029%=      5-min Rain = 0
KAM1 241859Z 04013KT 10/M07 A3019 RMK A01 T01011071  RH  029%=      5-min Rain = 0
KAM1 241900Z 03012KT 10/M08 A3019 RMK A01 T01011078  RH  027%=      5-min Rain = 0
KAM1 241901Z 03010KT 10/M08 A3019 RMK A01 T01001080  RH  027%=      5-min Rain = 0
KAM1 241902Z 04011KT 10/M08 A3019 RMK A01 T00991081  RH  027%=      5-min Rain = 0
KAM1 241903Z 05007KT 10/M08 A3019 RMK A01 T00981082  RH  027%=      5-min Rain = 0
KAM1 241904Z 05012KT 10/M08 A3019 RMK A01 T00981083  RH  027%=      5-min Rain = 0
KAM1 241905Z 04010KT 10/M09 A3019 RMK A01 T00971087  RH  026%=      5-min Rain = 0
KAM1 241906Z 05008KT 10/M09 A3019 RMK A01 T00951090  RH  026%=      5-min Rain = 0
KAM1 241907Z 03008KT 10/M08 A3019 RMK A01 T00951084  RH  027%=      5-min Rain = 0
KAM1 241908Z 04007KT 10/M08 A3019 RMK A01 T00951083  RH  028%=      5-min Rain = 0
KAM1 241909Z 04009KT 09/M08 A3019 RMK A01 T00941082  RH  028%=      5-min Rain = 0
KAM1 241910Z 04009KT 09/M08 A3019 RMK A01 T00941079  RH  029%=      5-min Rain = 0
KAM1 241911Z 05007KT 09/M08 A3019 RMK A01 T00941079  RH  029%=      5-min Rain = 0
KAM1 241912Z 05009KT 09/M08 A3019 RMK A01 T00931077  RH  029%=      5-min Rain = 0
KAM1 241913Z 03008KT 10/M08 A3019 RMK A01 T00951078  RH  029%=      5-min Rain = 0
KAM1 241914Z 03011KT 10/M08 A3019 RMK A01 T00951080  RH  028%=      5-min Rain = 0
KAM1 241915Z 02011KT 10/M08 A3019 RMK A01 T00981076  RH  028%=      5-min Rain = 0
KAM1 241916Z 03010KT 10/M07 A3019 RMK A01 T01041074  RH  028%=      5-min Rain = 0
KAM1 241917Z 03008KT 10/M08 A3019 RMK A01 T01011080  RH  027%=      5-min Rain = 0
KAM1 241918Z 02008KT 10/M08 A3019 RMK A01 T00991078  RH  028%=      5-min Rain = 0
KAM1 241919Z 01011KT 10/M08 A3018 RMK A01 T01001080  RH  027%=      5-min Rain = 0
KAM1 241920Z 02012G17KT 10/M08 A3018 RMK A01 T01011082  RH  027%=      5-min Rain = 0
KAM1 241921Z 04012KT 10/M08 A3019 RMK A01 T01041083  RH  026%=      5-min Rain = 0
KAM1 241922Z 03010KT 10/M09 A3019 RMK A01 T01021092  RH  025%=      5-min Rain = 0
KAM1 241923Z 03010KT 10/M09 A3019 RMK A01 T01001090  RH  025%=      5-min Rain = 0
KAM1 241924Z 02009KT 10/M09 A3019 RMK A01 T00991087  RH  026%=      5-min Rain = 0
KAM1 241925Z 04012G17KT 10/M09 A3019 RMK A01 T01011088  RH  026%=      5-min Rain = 0
KAM1 241926Z 06011KT 11/M09 A3019 RMK A01 T01051091  RH  024%=      5-min Rain = 0
KAM1 241927Z 08008KT 11/M09 A3019 RMK A01 T01091092  RH  023%=      5-min Rain = 0
KAM1 241928Z 07009KT 11/M10 A3019 RMK A01 T01101096  RH  022%=      5-min Rain = 0
KAM1 241929Z 03010KT 11/M10 A3019 RMK A01 T01111095  RH  023%=      5-min Rain = 0
KAM1 241930Z 04011KT 11/M10 A3019 RMK A01 T01091095  RH  023%=      5-min Rain = 0
KAM1 241931Z 04008G13KT 11/M10 A3019 RMK A01 T01061098  RH  023%=      5-min Rain = 0
KAM1 241932Z 04011KT 10/M10 A3018 RMK A01 T01041098  RH  023%=      5-min Rain = 0
KAM1 241933Z 03012KT 11/M10 A3018 RMK A01 T01081099  RH  022%=      5-min Rain = 0
KAM1 241934Z 04012KT 11/M10 A3018 RMK A01 T01091102  RH  022%=      5-min Rain = 0
KAM1 241935Z 06013KT 11/M10 A3018 RMK A01 T01091099  RH  022%=      5-min Rain = 0
KAM1 241936Z 06008KT 11/M10 A3018 RMK A01 T01081103  RH  022%=      5-min Rain = 0
KAM1 241937Z 05011KT 11/M10 A3018 RMK A01 T01061099  RH  023%=      5-min Rain = 0
KAM1 241938Z 04009KT 11/M09 A3018 RMK A01 T01081094  RH  023%=      5-min Rain = 0
KAM1 241939Z 04004KT 11/M10 A3018 RMK A01 T01051099  RH  023%=      5-min Rain = 0
KAM1 241940Z 06005KT 10/M10 A3018 RMK A01 T01031096  RH  024%=      5-min Rain = 0
KAM1 241941Z 08007KT 10/M10 A3018 RMK A01 T01021096  RH  024%=      5-min Rain = 0
KAM1 241942Z 08009KT 10/M09 A3018 RMK A01 T01021093  RH  024%=      5-min Rain = 0
KAM1 241943Z 05008KT 10/M09 A3018 RMK A01 T01041089  RH  025%=      5-min Rain = 0
KAM1 241944Z 03010KT 11/M09 A3018 RMK A01 T01051093  RH  024%=      5-min Rain = 0
KAM1 241945Z 04009KT 10/M10 A3017 RMK A01 T01041095  RH  024%=      5-min Rain = 0
KAM1 241946Z 08009KT 11/M09 A3017 RMK A01 T01061093  RH  024%=      5-min Rain = 0
KAM1 241947Z 09010KT 11/M10 A3017 RMK A01 T01091098  RH  022%=      5-min Rain = 0
KAM1 241948Z 08011KT 11/M10 A3017 RMK A01 T01111096  RH  022%=      5-min Rain = 0
KAM1 241949Z 08012KT 11/M10 A3017 RMK A01 T01141100  RH  021%=      5-min Rain = 0
KAM1 241950Z 08011KT 11/M10 A3018 RMK A01 T01131103  RH  021%=      5-min Rain = 0
KAM1 241951Z 08011KT 11/M10 A3017 RMK A01 T01131104  RH  021%=      5-min Rain = 0
KAM1 241952Z 07013G19KT 11/M10 A3017 RMK A01 T01111100  RH  022%=      5-min Rain = 0
KAM1 241953Z 07010KT 11/M10 A3017 RMK A01 T01121101  RH  021%=      5-min Rain = 0
KAM1 241954Z 07012KT 11/M10 A3018 RMK A01 T01081103  RH  022%=      5-min Rain = 0
KAM1 241955Z 08011KT 11/M10 A3018 RMK A01 T01081103  RH  022%=      5-min Rain = 0
KAM1 241956Z 07012KT 11/M11 A3018 RMK A01 T01071105  RH  022%=      5-min Rain = 0
KAM1 241957Z 07010KT 11/M10 A3017 RMK A01 T01051103  RH  022%=      5-min Rain = 0
KAM1 241958Z 08010KT 11/M10 A3017 RMK A01 T01081101  RH  022%=      5-min Rain = 0
KAM1 241959Z 08008KT 11/M10 A3017 RMK A01 T01101097  RH  022%=      5-min Rain = 0
KAM1 242000Z 08010KT 11/M10 A3017 RMK A01 T01111101  RH  021%=      5-min Rain = 0
KAM1 242001Z 08008KT 11/M10 A3017 RMK A01 T01081102  RH  022%=      5-min Rain = 0
KAM1 242002Z 09007KT 11/M10 A3017 RMK A01 T01081099  RH  022%=      5-min Rain = 0
KAM1 242003Z 09009KT 11/M10 A3017 RMK A01 T01081096  RH  023%=      5-min Rain = 0
KAM1 242004Z 07010KT 11/M09 A3017 RMK A01 T01091094  RH  023%=      5-min Rain = 0
KAM1 242005Z 06011KT 11/M10 A3017 RMK A01 T01091100  RH  022%=      5-min Rain = 0
KAM1 242006Z 06010KT 11/M10 A3017 RMK A01 T01061101  RH  022%=      5-min Rain = 0
KAM1 242007Z 06009KT 11/M10 A3017 RMK A01 T01051099  RH  023%=      5-min Rain = 0
KAM1 242008Z 06010KT 11/M10 A3017 RMK A01 T01051096  RH  023%=      5-min Rain = 0
KAM1 242009Z 06009KT 11/M10 A3017 RMK A01 T01061095  RH  023%=      5-min Rain = 0
KAM1 242010Z 06009KT 11/M09 A3017 RMK A01 T01081092  RH  024%=      5-min Rain = 0
KAM1 242011Z 07008KT 11/M09 A3017 RMK A01 T01081093  RH  023%=      5-min Rain = 0
KAM1 242012Z 07006KT 11/M10 A3017 RMK A01 T01081095  RH  023%=      5-min Rain = 0
KAM1 242013Z 05006KT 11/M10 A3016 RMK A01 T01061096  RH  023%=      5-min Rain = 0
KAM1 242014Z 08005KT 11/M09 A3016 RMK A01 T01051094  RH  024%=      5-min Rain = 0
KAM1 242015Z 10008KT 11/M10 A3016 RMK A01 T01081096  RH  023%=      5-min Rain = 0
KAM1 242016Z 08004KT 11/M11 A3016 RMK A01 T01091105  RH  021%=      5-min Rain = 0
KAM1 242017Z 05008KT 11/M10 A3016 RMK A01 T01081100  RH  022%=      5-min Rain = 0
KAM1 242018Z 04008KT 11/M10 A3016 RMK A01 T01101095  RH  023%=      5-min Rain = 0
KAM1 242019Z 06006KT 11/M09 A3016 RMK A01 T01111094  RH  023%=      5-min Rain = 0
KAM1 242020Z 06008KT 11/M10 A3016 RMK A01 T01091095  RH  023%=      5-min Rain = 0
KAM1 242021Z 05010KT 11/M09 A3016 RMK A01 T01091092  RH  023%=      5-min Rain = 0
KAM1 242022Z 06008KT 11/M09 A3016 RMK A01 T01101091  RH  023%=      5-min Rain = 0
KAM1 242023Z 05009KT 11/M09 A3016 RMK A01 T01111088  RH  024%=      5-min Rain = 0
KAM1 242024Z 04008KT 11/M09 A3016 RMK A01 T01121094  RH  023%=      5-min Rain = 0
KAM1 242025Z 05007G12KT 11/M09 A3016 RMK A01 T01101094  RH  023%=      5-min Rain = 0
KAM1 242026Z 07013KT 11/M09 A3016 RMK A01 T01131089  RH  023%=      5-min Rain = 0
KAM1 242027Z 06012G17KT 11/M09 A3016 RMK A01 T01141091  RH  023%=      5-min Rain = 0
KAM1 242028Z 05009KT 11/M09 A3016 RMK A01 T01141094  RH  022%=      5-min Rain = 0
KAM1 242029Z 06011KT 11/M09 A3016 RMK A01 T01131094  RH  022%=      5-min Rain = 0
KAM1 242030Z 05010KT 11/M10 A3016 RMK A01 T01141096  RH  022%=      5-min Rain = 0
KAM1 242031Z 05009KT 11/M10 A3016 RMK A01 T01111099  RH  022%=      5-min Rain = 0
KAM1 242032Z 06008KT 11/M10 A3016 RMK A01 T01101099  RH  022%=      5-min Rain = 0
KAM1 242033Z 07005KT 11/M10 A3016 RMK A01 T01081099  RH  022%=      5-min Rain = 0
KAM1 242034Z 09009KT 11/M10 A3016 RMK A01 T01091096  RH  023%=      5-min Rain = 0
KAM1 242035Z 10009KT 11/M10 A3016 RMK A01 T01091099  RH  022%=      5-min Rain = 0
KAM1 242036Z 09011KT 11/M10 A3015 RMK A01 T01101096  RH  022%=      5-min Rain = 0
KAM1 242037Z 08008KT 11/M10 A3015 RMK A01 T01121095  RH  022%=      5-min Rain = 0
KAM1 242038Z 08009KT 12/M09 A3015 RMK A01 T01151093  RH  022%=      5-min Rain = 0
KAM1 242039Z 06011KT 12/M09 A3015 RMK A01 T01161092  RH  022%=      5-min Rain = 0
KAM1 242040Z 06007G12KT 12/M09 A3015 RMK A01 T01171093  RH  022%=      5-min Rain = 0
KAM1 242041Z 09010KT 12/M09 A3015 RMK A01 T01191092  RH  022%=      5-min Rain = 0
KAM1 242042Z 12009KT 12/M09 A3015 RMK A01 T01221092  RH  022%=      5-min Rain = 0
KAM1 242043Z 10007KT 12/M10 A3015 RMK A01 T01221096  RH  021%=      5-min Rain = 0
KAM1 242044Z 09008KT 12/M10 A3015 RMK A01 T01201096  RH  021%=      5-min Rain = 0
KAM1 242045Z 08012KT 12/M09 A3016 RMK A01 T01211094  RH  021%=      5-min Rain = 0
KAM1 242046Z 08013KT 12/M10 A3016 RMK A01 T01211095  RH  021%=      5-min Rain = 0
KAM1 242047Z 08011KT 12/M10 A3016 RMK A01 T01201095  RH  021%=      5-min Rain = 0
KAM1 242048Z 08008KT 12/M10 A3015 RMK A01 T01181096  RH  021%=      5-min Rain = 0
KAM1 242049Z 07006KT 11/M10 A3015 RMK A01 T01141102  RH  021%=      5-min Rain = 0
KAM1 242050Z 05004KT 11/M10 A3015 RMK A01 T01111101  RH  021%=      5-min Rain = 0
KAM1 242051Z 08007KT 11/M10 A3015 RMK A01 T01111100  RH  022%=      5-min Rain = 0
KAM1 242052Z 08009KT 11/M10 A3015 RMK A01 T01131097  RH  022%=      5-min Rain = 0
KAM1 242053Z 07010KT 11/M10 A3015 RMK A01 T01131096  RH  022%=      5-min Rain = 0
KAM1 242054Z 08011KT 12/M09 A3015 RMK A01 T01161094  RH  022%=      5-min Rain = 0
KAM1 242055Z 09008KT 12/M10 A3015 RMK A01 T01171097  RH  021%=      5-min Rain = 0
KAM1 242056Z 10008KT 12/M09 A3015 RMK A01 T01201092  RH  022%=      5-min Rain = 0
KAM1 242057Z 11010KT 12/M10 A3015 RMK A01 T01191098  RH  021%=      5-min Rain = 0
KAM1 242058Z 11010KT 12/M10 A3015 RMK A01 T01191097  RH  021%=      5-min Rain = 0
KAM1 242059Z 09006KT 12/M10 A3015 RMK A01 T01181099  RH  021%=      5-min Rain = 0
KAM1 242100Z 08004KT 12/M10 A3015 RMK A01 T01171098  RH  021%=      5-min Rain = 0
KAM1 242101Z 08006KT 12/M09 A3015 RMK A01 T01181094  RH  022%=      5-min Rain = 0
KAM1 242102Z 06010KT 12/M09 A3015 RMK A01 T01201091  RH  022%=      5-min Rain = 0
KAM1 242103Z 07011KT 12/M09 A3015 RMK A01 T01201094  RH  021%=      5-min Rain = 0
KAM1 242104Z 06010KT 12/M10 A3015 RMK A01 T01181096  RH  021%=      5-min Rain = 0
KAM1 242105Z 05009KT 12/M10 A3015 RMK A01 T01171097  RH  021%=      5-min Rain = 0
KAM1 242106Z 05008KT 12/M10 A3015 RMK A01 T01151100  RH  021%=      5-min Rain = 0
KAM1 242107Z 07008G13KT 11/M10 A3015 RMK A01 T01131100  RH  021%=      5-min Rain = 0
KAM1 242108Z 09011KT 12/M10 A3015 RMK A01 T01151095  RH  022%=      5-min Rain = 0
KAM1 242109Z 07011KT 12/M10 A3015 RMK A01 T01181096  RH  021%=      5-min Rain = 0
KAM1 242110Z 06010KT 12/M10 A3015 RMK A01 T01161100  RH  021%=      5-min Rain = 0
KAM1 242111Z 06008KT 12/M10 A3015 RMK A01 T01151099  RH  021%=      5-min Rain = 0
KAM1 242112Z 08004KT 11/M10 A3015 RMK A01 T01141098  RH  022%=      5-min Rain = 0
KAM1 242113Z 06005G10KT 11/M10 A3015 RMK A01 T01141098  RH  022%=      5-min Rain = 0
KAM1 242114Z 05010KT 12/M09 A3015 RMK A01 T01161094  RH  022%=      5-min Rain = 0
KAM1 242115Z 07010KT 12/M09 A3015 RMK A01 T01201091  RH  022%=      5-min Rain = 0
KAM1 242116Z 09009KT 12/M10 A3015 RMK A01 T01221095  RH  021%=      5-min Rain = 0
KAM1 242117Z 09009G14KT 12/M10 A3015 RMK A01 T01211095  RH  021%=      5-min Rain = 0
KAM1 242118Z 08011KT 12/M09 A3015 RMK A01 T01211093  RH  021%=      5-min Rain = 0
KAM1 242119Z 07012KT 12/M10 A3015 RMK A01 T01201097  RH  021%=      5-min Rain = 0
KAM1 242120Z 09009KT 12/M10 A3015 RMK A01 T01171100  RH  021%=      5-min Rain = 0
KAM1 242121Z 08006KT 12/M10 A3015 RMK A01 T01151097  RH  022%=      5-min Rain = 0
KAM1 242122Z 06009KT 12/M10 A3015 RMK A01 T01171095  RH  022%=      5-min Rain = 0
KAM1 242123Z 05008KT 12/M10 A3015 RMK A01 T01171097  RH  021%=      5-min Rain = 0
KAM1 242124Z 05008KT 12/M10 A3015 RMK A01 T01161099  RH  021%=      5-min Rain = 0
KAM1 242125Z 08007G12KT 12/M10 A3015 RMK A01 T01151099  RH  021%=      5-min Rain = 0
KAM1 242126Z 08012G18KT 12/M10 A3015 RMK A01 T01151096  RH  022%=      5-min Rain = 0
KAM1 242127Z 08010G15KT 12/M10 A3015 RMK A01 T01171096  RH  021%=      5-min Rain = 0
KAM1 242128Z 09008KT 12/M10 A3015 RMK A01 T01171099  RH  021%=      5-min Rain = 0
KAM1 242129Z 07010KT 12/M10 A3015 RMK A01 T01161097  RH  021%=      5-min Rain = 0
KAM1 242130Z 08008KT 12/M09 A3015 RMK A01 T01181094  RH  022%=      5-min Rain = 0
KAM1 242131Z 09006KT 12/M10 A3015 RMK A01 T01201095  RH  021%=      5-min Rain = 0
KAM1 242132Z 09007G12KT 12/M10 A3015 RMK A01 T01191097  RH  021%=      5-min Rain = 0
KAM1 242133Z 08012KT 12/M10 A3015 RMK A01 T01191095  RH  021%=      5-min Rain = 0
KAM1 242134Z 10012KT 12/M09 A3015 RMK A01 T01201094  RH  021%=      5-min Rain = 0
KAM1 242135Z 11011KT 12/M09 A3015 RMK A01 T01221094  RH  021%=      5-min Rain = 0
KAM1 242136Z 11010KT 12/M10 A3015 RMK A01 T01231096  RH  021%=      5-min Rain = 0
KAM1 242137Z 11009KT 12/M10 A3015 RMK A01 T01221098  RH  021%=      5-min Rain = 0
KAM1 242138Z 11008KT 12/M10 A3015 RMK A01 T01191102  RH  020%=      5-min Rain = 0
KAM1 242139Z 10012KT 12/M10 A3015 RMK A01 T01171100  RH  021%=      5-min Rain = 0
KAM1 242140Z 10012KT 12/M10 A3015 RMK A01 T01181095  RH  022%=      5-min Rain = 0
KAM1 242141Z 10009KT 12/M10 A3015 RMK A01 T01191097  RH  021%=      5-min Rain = 0
KAM1 242142Z 09006KT 12/M10 A3015 RMK A01 T01171100  RH  021%=      5-min Rain = 0
KAM1 242143Z 10006KT 12/M10 A3015 RMK A01 T01151102  RH  021%=      5-min Rain = 0
KAM1 242144Z 08008KT 11/M10 A3015 RMK A01 T01141100  RH  021%=      5-min Rain = 0
KAM1 242145Z 10004KT 12/M10 A3014 RMK A01 T01151100  RH  021%=      5-min Rain = 0
KAM1 242146Z 08010KT 12/M10 A3015 RMK A01 T01161096  RH  022%=      5-min Rain = 0
KAM1 242147Z 06011KT 12/M09 A3015 RMK A01 T01191094  RH  022%=      5-min Rain = 0
KAM1 242148Z 08009KT 12/M10 A3015 RMK A01 T01211095  RH  021%=      5-min Rain = 0
KAM1 242149Z 09007KT 12/M09 A3015 RMK A01 T01211092  RH  022%=      5-min Rain = 0
KAM1 242150Z 12008KT 12/M09 A3015 RMK A01 T01231094  RH  021%=      5-min Rain = 0
KAM1 242151Z 12008KT 12/M10 A3015 RMK A01 T01221097  RH  021%=      5-min Rain = 0
KAM1 242152Z 10009G15KT 12/M10 A3015 RMK A01 T01201099  RH  021%=      5-min Rain = 0
KAM1 242153Z 11011KT 12/M10 A3015 RMK A01 T01181100  RH  021%=      5-min Rain = 0
KAM1 242154Z 11008KT 12/M10 A3014 RMK A01 T01151101  RH  021%=      5-min Rain = 0
KAM1 242155Z 10010KT 12/M10 A3014 RMK A01 T01151096  RH  022%=      5-min Rain = 0
KAM1 242156Z 08011KT 12/M09 A3015 RMK A01 T01221089  RH  022%=      5-min Rain = 0
KAM1 242157Z 10005KT 12/M10 A3014 RMK A01 T01231096  RH  021%=      5-min Rain = 0
KAM1 242158Z 09009KT 12/M10 A3014 RMK A01 T01201098  RH  021%=      5-min Rain = 0
KAM1 242159Z 09013KT 12/M09 A3015 RMK A01 T01201094  RH  021%=      5-min Rain = 0
KAM1 242200Z 08011KT 12/M10 A3015 RMK A01 T01181098  RH  021%=      5-min Rain = 0
KAM1 242201Z 08007KT 12/M10 A3015 RMK A01 T01161100  RH  021%=      5-min Rain = 0
KAM1 242202Z 07008KT 12/M10 A3015 RMK A01 T01151097  RH  022%=      5-min Rain = 0
KAM1 242203Z 07006KT 12/M10 A3015 RMK A01 T01161097  RH  022%=      5-min Rain = 0
KAM1 242204Z 09009KT 12/M10 A3014 RMK A01 T01171095  RH  022%=      5-min Rain = 0
KAM1 242205Z 07009KT 12/M10 A3015 RMK A01 T01191095  RH  021%=      5-min Rain = 0
KAM1 242206Z 06006KT 12/M10 A3014 RMK A01 T01171098  RH  021%=      5-min Rain = 0
KAM1 242207Z 08007KT 12/M10 A3014 RMK A01 T01151098  RH  021%=      5-min Rain = 0
KAM1 242208Z 07011KT 12/M10 A3014 RMK A01 T01151097  RH  022%=      5-min Rain = 0
KAM1 242209Z 08009KT 12/M10 A3014 RMK A01 T01151097  RH  022%=      5-min Rain = 0
KAM1 242210Z 07011KT 12/M10 A3014 RMK A01 T01161096  RH  022%=      5-min Rain = 0
KAM1 242211Z 06010KT 12/M10 A3014 RMK A01 T01171096  RH  022%=      5-min Rain = 0
KAM1 242212Z 08008KT 12/M10 A3014 RMK A01 T01171095  RH  022%=      5-min Rain = 0
KAM1 242213Z 09010KT 12/M09 A3014 RMK A01 T01191092  RH  022%=      5-min Rain = 0
KAM1 242214Z 09009G14KT 12/M09 A3014 RMK A01 T01201093  RH  022%=      5-min Rain = 0
KAM1 242215Z 08013KT 12/M09 A3014 RMK A01 T01211093  RH  021%=      5-min Rain = 0
KAM1 242216Z 08012KT 12/M09 A3014 RMK A01 T01211091  RH  022%=      5-min Rain = 0
KAM1 242217Z 08008KT 12/M09 A3014 RMK A01 T01221093  RH  021%=      5-min Rain = 0
KAM1 242218Z 08009KT 12/M09 A3014 RMK A01 T01211094  RH  021%=      5-min Rain = 0
KAM1 242219Z 07009KT 12/M10 A3014 RMK A01 T01201097  RH  021%=      5-min Rain = 0
KAM1 242220Z 09012KT 12/M10 A3014 RMK A01 T01171098  RH  021%=      5-min Rain = 0
KAM1 242221Z 09010KT 12/M10 A3014 RMK A01 T01171097  RH  021%=      5-min Rain = 0
KAM1 242222Z 10010KT 12/M10 A3014 RMK A01 T01171096  RH  022%=      5-min Rain = 0
KAM1 242223Z 10007KT 12/M10 A3014 RMK A01 T01171098  RH  021%=      5-min Rain = 0
KAM1 242224Z 08008KT 12/M10 A3014 RMK A01 T01161097  RH  021%=      5-min Rain = 0
KAM1 242225Z 09006KT 12/M10 A3013 RMK A01 T01161098  RH  021%=      5-min Rain = 0
KAM1 242226Z 07004KT 12/M10 A3013 RMK A01 T01161098  RH  021%=      5-min Rain = 0
KAM1 242227Z 09008KT 12/M10 A3013 RMK A01 T01161097  RH  021%=      5-min Rain = 0
KAM1 242228Z 10010KT 12/M10 A3013 RMK A01 T01171096  RH  022%=      5-min Rain = 0
KAM1 242229Z 10014KT 12/M10 A3013 RMK A01 T01181096  RH  021%=      5-min Rain = 0
KAM1 242230Z 10012KT 12/M10 A3013 RMK A01 T01191098  RH  021%=      5-min Rain = 0
KAM1 242231Z 10012KT 12/M10 A3013 RMK A01 T01181097  RH  021%=      5-min Rain = 0
KAM1 242232Z 09009KT 12/M10 A3013 RMK A01 T01171098  RH  021%=      5-min Rain = 0
KAM1 242233Z 10009KT 12/M10 A3014 RMK A01 T01161098  RH  021%=      5-min Rain = 0
KAM1 242234Z 10010KT 12/M10 A3014 RMK A01 T01161098  RH  021%=      5-min Rain = 0
KAM1 242235Z 10011KT 12/M10 A3014 RMK A01 T01161097  RH  021%=      5-min Rain = 0
KAM1 242236Z 10012KT 12/M10 A3014 RMK A01 T01161097  RH  021%=      5-min Rain = 0
KAM1 242237Z 11011KT 12/M10 A3014 RMK A01 T01171096  RH  022%=      5-min Rain = 0
KAM1 242238Z 11009KT 12/M10 A3014 RMK A01 T01171098  RH  021%=      5-min Rain = 0
KAM1 242239Z 12008KT 12/M10 A3013 RMK A01 T01151100  RH  021%=      5-min Rain = 0
KAM1 242240Z 12007KT 12/M10 A3013 RMK A01 T01151098  RH  021%=      5-min Rain = 0
KAM1 242241Z 10008KT 12/M10 A3013 RMK A01 T01161096  RH  022%=      5-min Rain = 0
KAM1 242242Z 09008KT 12/M09 A3014 RMK A01 T01181093  RH  022%=      5-min Rain = 0
KAM1 242243Z 08007KT 12/M09 A3014 RMK A01 T01201094  RH  021%=      5-min Rain = 0
KAM1 242244Z 08008KT 12/M10 A3014 RMK A01 T01191095  RH  021%=      5-min Rain = 0
KAM1 242245Z 09010KT 12/M10 A3014 RMK A01 T01191096  RH  021%=      5-min Rain = 0
KAM1 242246Z 08008KT 12/M10 A3014 RMK A01 T01171098  RH  021%=      5-min Rain = 0
KAM1 242247Z 08007KT 12/M10 A3014 RMK A01 T01151097  RH  022%=      5-min Rain = 0
KAM1 242248Z 09011KT 12/M10 A3014 RMK A01 T01151096  RH  022%=      5-min Rain = 0
KAM1 242249Z 09011KT 12/M10 A3014 RMK A01 T01161095  RH  022%=      5-min Rain = 0
KAM1 242250Z 07012KT 12/M09 A3014 RMK A01 T01161092  RH  022%=      5-min Rain = 0
KAM1 242251Z 08011KT 12/M09 A3014 RMK A01 T01181094  RH  022%=      5-min Rain = 0
KAM1 242252Z 09011KT 12/M10 A3013 RMK A01 T01161097  RH  022%=      5-min Rain = 0
KAM1 242253Z 08010KT 12/M10 A3014 RMK A01 T01151096  RH  022%=      5-min Rain = 0
KAM1 242254Z 09009KT 11/M10 A3013 RMK A01 T01141097  RH  022%=      5-min Rain = 0
KAM1 242255Z 10008KT 11/M10 A3013 RMK A01 T01141097  RH  022%=      5-min Rain = 0
KAM1 242256Z 11009G14KT 12/M10 A3013 RMK A01 T01151097  RH  022%=      5-min Rain = 0
KAM1 242257Z 12013KT 12/M10 A3013 RMK A01 T01161096  RH  022%=      5-min Rain = 0
KAM1 242258Z 11013KT 12/M10 A3013 RMK A01 T01161097  RH  021%=      5-min Rain = 0
KAM1 242259Z 11010KT 12/M10 A3013 RMK A01 T01161099  RH  021%=      5-min Rain = 0
KAM1 242300Z 10011KT 12/M10 A3013 RMK A01 T01161096  RH  022%=      5-min Rain = 0
KAM1 242301Z 10011KT 12/M10 A3014 RMK A01 T01161099  RH  021%=      5-min Rain = 0
KAM1 242302Z 11010KT 12/M10 A3014 RMK A01 T01151099  RH  021%=      5-min Rain = 0
KAM1 242303Z 12009KT 12/M10 A3014 RMK A01 T01151098  RH  021%=      5-min Rain = 0
KAM1 242304Z 11008KT 12/M10 A3014 RMK A01 T01151098  RH  021%=      5-min Rain = 0
KAM1 242305Z 09006KT 12/M10 A3014 RMK A01 T01151101  RH  021%=      5-min Rain = 0
KAM1 242306Z 09008KT 11/M10 A3014 RMK A01 T01141100  RH  021%=      5-min Rain = 0
KAM1 242307Z 09009KT 12/M10 A3014 RMK A01 T01161096  RH  022%=      5-min Rain = 0
KAM1 242308Z 09008KT 12/M10 A3014 RMK A01 T01161099  RH  021%=      5-min Rain = 0
KAM1 242309Z 10008KT 12/M10 A3014 RMK A01 T01161099  RH  021%=      5-min Rain = 0
KAM1 242310Z 10008KT 12/M10 A3013 RMK A01 T01151100  RH  021%=      5-min Rain = 0
KAM1 242311Z 10010KT 11/M10 A3013 RMK A01 T01141100  RH  021%=      5-min Rain = 0
KAM1 242312Z 09011KT 11/M10 A3014 RMK A01 T01141100  RH  021%=      5-min Rain = 0
KAM1 242313Z 10008KT 11/M10 A3014 RMK A01 T01141101  RH  021%=      5-min Rain = 0
KAM1 242314Z 09007KT 11/M10 A3014 RMK A01 T01131102  RH  021%=      5-min Rain = 0
KAM1 242315Z 08009KT 11/M10 A3014 RMK A01 T01131102  RH  021%=      5-min Rain = 0
KAM1 242316Z 06008KT 11/M10 A3014 RMK A01 T01131101  RH  021%=      5-min Rain = 0
KAM1 242317Z 08007KT 11/M10 A3014 RMK A01 T01131101  RH  021%=      5-min Rain = 0
KAM1 242318Z 10010KT 11/M10 A3014 RMK A01 T01131101  RH  021%=      5-min Rain = 0
KAM1 242319Z 09010KT 11/M10 A3014 RMK A01 T01131099  RH  022%=      5-min Rain = 0
KAM1 242320Z 09013KT 11/M10 A3014 RMK A01 T01121098  RH  022%=      5-min Rain = 0
KAM1 242321Z 09010KT 11/M10 A3013 RMK A01 T01111098  RH  022%=      5-min Rain = 0
KAM1 242322Z 08009KT 11/M10 A3013 RMK A01 T01121096  RH  022%=      5-min Rain = 0
KAM1 242323Z 09009KT 11/M10 A3013 RMK A01 T01131096  RH  022%=      5-min Rain = 0
KAM1 242324Z 08009KT 11/M10 A3013 RMK A01 T01121097  RH  022%=      5-min Rain = 0
KAM1 242325Z 08009KT 11/M10 A3014 RMK A01 T01121098  RH  022%=      5-min Rain = 0
KAM1 242326Z 08008KT 11/M10 A3014 RMK A01 T01111098  RH  022%=      5-min Rain = 0
KAM1 242327Z 10007KT 11/M10 A3014 RMK A01 T01111098  RH  022%=      5-min Rain = 0
KAM1 242328Z 10007KT 11/M10 A3014 RMK A01 T01111097  RH  022%=      5-min Rain = 0
KAM1 242329Z 10008KT 11/M10 A3014 RMK A01 T01121097  RH  022%=      5-min Rain = 0
KAM1 242330Z 12010KT 11/M10 A3014 RMK A01 T01121096  RH  022%=      5-min Rain = 0
KAM1 242331Z 12009KT 11/M10 A3013 RMK A01 T01121098  RH  022%=      5-min Rain = 0
KAM1 242332Z 10011KT 11/M10 A3014 RMK A01 T01111097  RH  022%=      5-min Rain = 0
KAM1 242333Z 11008KT 11/M10 A3014 RMK A01 T01111098  RH  022%=      5-min Rain = 0
KAM1 242334Z 10008KT 11/M10 A3013 RMK A01 T01101099  RH  022%=      5-min Rain = 0
KAM1 242335Z 09009KT 11/M10 A3013 RMK A01 T01101098  RH  022%=      5-min Rain = 0
KAM1 242336Z 10008KT 11/M10 A3013 RMK A01 T01101097  RH  022%=      5-min Rain = 0
KAM1 242337Z 10008KT 11/M10 A3013 RMK A01 T01101097  RH  022%=      5-min Rain = 0
KAM1 242338Z 10009KT 11/M10 A3013 RMK A01 T01101098  RH  022%=      5-min Rain = 0
KAM1 242339Z 10010KT 11/M10 A3013 RMK A01 T01091100  RH  022%=      5-min Rain = 0
KAM1 242340Z 10009KT 11/M10 A3013 RMK A01 T01091098  RH  022%=      5-min Rain = 0
KAM1 242341Z 09009KT 11/M10 A3013 RMK A01 T01081098  RH  022%=      5-min Rain = 0
KAM1 242342Z 10009KT 11/M10 A3013 RMK A01 T01081096  RH  023%=      5-min Rain = 0
KAM1 242343Z 11008KT 11/M10 A3013 RMK A01 T01081096  RH  023%=      5-min Rain = 0
KAM1 242344Z 11010KT 11/M10 A3014 RMK A01 T01081097  RH  023%=      5-min Rain = 0
KAM1 242345Z 10008KT 11/M10 A3014 RMK A01 T01071098  RH  023%=      5-min Rain = 0
KAM1 242346Z 09008KT 11/M10 A3014 RMK A01 T01071097  RH  023%=      5-min Rain = 0
KAM1 242347Z 09008KT 11/M10 A3014 RMK A01 T01071097  RH  023%=      5-min Rain = 0
KAM1 242348Z 08009KT 11/M10 A3014 RMK A01 T01071098  RH  023%=      5-min Rain = 0
KAM1 242349Z 09009KT 11/M10 A3014 RMK A01 T01061096  RH  023%=      5-min Rain = 0
KAM1 242350Z 10008KT 11/M09 A3014 RMK A01 T01071094  RH  023%=      5-min Rain = 0
KAM1 242351Z 10006KT 11/M09 A3014 RMK A01 T01061093  RH  024%=      5-min Rain = 0
KAM1 242352Z 09007KT 11/M10 A3014 RMK A01 T01061096  RH  023%=      5-min Rain = 0
KAM1 242353Z 08011KT 11/M10 A3014 RMK A01 T01061095  RH  023%=      5-min Rain = 0
KAM1 242354Z 09010KT 11/M10 A3014 RMK A01 T01051095  RH  023%=      5-min Rain = 0
KAM1 242355Z 09008KT 11/M10 A3015 RMK A01 T01051095  RH  024%=      5-min Rain = 0
KAM1 242356Z 09007KT 11/M09 A3015 RMK A01 T01051093  RH  024%=      5-min Rain = 0
KAM1 242357Z 08008KT 10/M09 A3015 RMK A01 T01041092  RH  024%=      5-min Rain = 0
KAM1 242358Z 08010KT 10/M09 A3015 RMK A01 T01041093  RH  024%=      5-min Rain = 0
KAM1 242359Z 09010KT 10/M10 A3015 RMK A01 T01031095  RH  024%=      5-min Rain = 0
KAM1 250000Z 09010KT 10/M10 A3015 RMK A01 T01031096  RH  024%=      5-min Rain = 0
KAM1 250001Z 09009KT 10/M10 A3015 RMK A01 T01031096  RH  024%=      5-min Rain = 0
KAM1 250002Z 09010KT 10/M10 A3015 RMK A01 T01021095  RH  024%=      5-min Rain = 0
KAM1 250003Z 09009KT 10/M10 A3015 RMK A01 T01011096  RH  024%=      5-min Rain = 0
KAM1 250004Z 09010KT 10/M10 A3015 RMK A01 T01011097  RH  024%=      5-min Rain = 0
KAM1 250005Z 09009KT 10/M10 A3015 RMK A01 T01011098  RH  024%=      5-min Rain = 0
KAM1 250006Z 09008KT 10/M10 A3015 RMK A01 T01001098  RH  024%=      5-min Rain = 0
KAM1 250007Z 09009KT 10/M10 A3015 RMK A01 T00991097  RH  024%=      5-min Rain = 0
KAM1 250008Z 09008KT 10/M10 A3015 RMK A01 T00981098  RH  024%=      5-min Rain = 0
KAM1 250009Z 09008KT 10/M10 A3015 RMK A01 T00981097  RH  024%=      5-min Rain = 0
KAM1 250010Z 09008KT 10/M10 A3015 RMK A01 T00971098  RH  024%=      5-min Rain = 0
KAM1 250011Z 09009KT 10/M10 A3015 RMK A01 T00961098  RH  024%=      5-min Rain = 0
KAM1 250012Z 09008KT 10/M10 A3015 RMK A01 T00961098  RH  024%=      5-min Rain = 0
KAM1 250013Z 08007KT 10/M10 A3015 RMK A01 T00951099  RH  024%=      5-min Rain = 0
KAM1 250014Z 08008KT 09/M10 A3015 RMK A01 T00941099  RH  025%=      5-min Rain = 0
KAM1 250015Z 08009KT 09/M10 A3016 RMK A01 T00941099  RH  025%=      5-min Rain = 0
KAM1 250016Z 09009KT 09/M10 A3016 RMK A01 T00931099  RH  025%=      5-min Rain = 0
KAM1 250017Z 09008KT 09/M10 A3016 RMK A01 T00931100  RH  024%=      5-min Rain = 0
KAM1 250018Z 09007KT 09/M10 A3016 RMK A01 T00921100  RH  025%=      5-min Rain = 0
KAM1 250019Z 09009KT 09/M10 A3016 RMK A01 T00911100  RH  025%=      5-min Rain = 0
KAM1 250020Z 09008KT 09/M10 A3016 RMK A01 T00901100  RH  025%=      5-min Rain = 0
KAM1 250021Z 09008KT 09/M10 A3016 RMK A01 T00891100  RH  025%=      5-min Rain = 0
KAM1 250022Z 08007KT 09/M10 A3016 RMK A01 T00881099  RH  025%=      5-min Rain = 0
KAM1 250023Z 09007KT 09/M10 A3016 RMK A01 T00871100  RH  026%=      5-min Rain = 0
KAM1 250024Z 09007KT 09/M10 A3016 RMK A01 T00851099  RH  026%=      5-min Rain = 0
KAM1 250025Z 09007KT 08/M10 A3016 RMK A01 T00841099  RH  026%=      5-min Rain = 0
KAM1 250026Z 08007KT 08/M10 A3016 RMK A01 T00821099  RH  027%=      5-min Rain = 0
KAM1 250027Z 08007KT 08/M10 A3016 RMK A01 T00811098  RH  027%=      5-min Rain = 0
KAM1 250028Z 08008KT 08/M10 A3016 RMK A01 T00801098  RH  027%=      5-min Rain = 0
KAM1 250029Z 08008KT 08/M10 A3016 RMK A01 T00781098  RH  027%=      5-min Rain = 0
KAM1 250030Z 08007KT 08/M10 A3016 RMK A01 T00771098  RH  028%=      5-min Rain = 0
KAM1 250031Z 08007KT 08/M10 A3016 RMK A01 T00751098  RH  028%=      5-min Rain = 0
KAM1 250032Z 08007KT 07/M10 A3017 RMK A01 T00741098  RH  028%=      5-min Rain = 0
KAM1 250033Z 08006KT 07/M10 A3017 RMK A01 T00731098  RH  029%=      5-min Rain = 0
KAM1 250034Z 08006KT 07/M10 A3017 RMK A01 T00711098  RH  029%=      5-min Rain = 0
KAM1 250035Z 08006KT 07/M10 A3017 RMK A01 T00691099  RH  029%=      5-min Rain = 0
KAM1 250036Z 08007KT 07/M10 A3017 RMK A01 T00661099  RH  030%=      5-min Rain = 0
KAM1 250037Z 08007KT 06/M10 A3017 RMK A01 T00641099  RH  030%=      5-min Rain = 0
KAM1 250038Z 08007KT 06/M10 A3017 RMK A01 T00631099  RH  030%=      5-min Rain = 0
KAM1 250039Z 08008KT 06/M10 A3017 RMK A01 T00611099  RH  031%=      5-min Rain = 0
KAM1 250040Z 09008KT 06/M10 A3017 RMK A01 T00601099  RH  031%=      5-min Rain = 0
KAM1 250041Z 09007KT 06/M10 A3017 RMK A01 T00601099  RH  031%=      5-min Rain = 0
KAM1 250042Z 09008KT 06/M10 A3017 RMK A01 T00591099  RH  031%=      5-min Rain = 0
KAM1 250043Z 09008KT 06/M10 A3017 RMK A01 T00591098  RH  031%=      5-min Rain = 0
KAM1 250044Z 09007KT 06/M10 A3017 RMK A01 T00581099  RH  031%=      5-min Rain = 0
KAM1 250045Z 09007KT 06/M10 A3017 RMK A01 T00571099  RH  031%=      5-min Rain = 0
KAM1 250046Z 09006KT 06/M10 A3017 RMK A01 T00561100  RH  032%=      5-min Rain = 0
KAM1 250047Z 08006KT 06/M10 A3017 RMK A01 T00551099  RH  032%=      5-min Rain = 0
KAM1 250048Z 08006KT 05/M10 A3017 RMK A01 T00541099  RH  032%=      5-min Rain = 0
KAM1 250049Z 07005KT 05/M10 A3017 RMK A01 T00531098  RH  033%=      5-min Rain = 0
KAM1 250050Z 07006KT 05/M10 A3017 RMK A01 T00521097  RH  033%=      5-min Rain = 0
KAM1 250051Z 07007KT 05/M10 A3017 RMK A01 T00521096  RH  033%=      5-min Rain = 0
KAM1 250052Z 07008KT 05/M10 A3017 RMK A01 T00501098  RH  033%=      5-min Rain = 0
KAM1 250053Z 07008KT 05/M10 A3017 RMK A01 T00481099  RH  034%=      5-min Rain = 0
KAM1 250054Z 07008KT 05/M10 A3017 RMK A01 T00461099  RH  034%=      5-min Rain = 0
KAM1 250055Z 07008KT 04/M10 A3017 RMK A01 T00441099  RH  034%=      5-min Rain = 0
KAM1 250056Z 07008KT 04/M10 A3017 RMK A01 T00431099  RH  035%=      5-min Rain = 0
KAM1 250057Z 07007KT 04/M10 A3018 RMK A01 T00431098  RH  035%=      5-min Rain = 0
KAM1 250058Z 07007KT 04/M10 A3018 RMK A01 T00431097  RH  035%=      5-min Rain = 0
KAM1 250059Z 07008KT 04/M10 A3018 RMK A01 T00421098  RH  036%=      5-min Rain = 0
KAM1 250100Z 07007KT 04/M10 A3018 RMK A01 T00411098  RH  036%=      5-min Rain = 0
KAM1 250101Z 07007KT 04/M10 A3018 RMK A01 T00411098  RH  036%=      5-min Rain = 0
KAM1 250102Z 08007KT 04/M10 A3018 RMK A01 T00411098  RH  036%=      5-min Rain = 0
KAM1 250103Z 08007KT 04/M10 A3018 RMK A01 T00411098  RH  036%=      5-min Rain = 0
KAM1 250104Z 08007KT 04/M10 A3018 RMK A01 T00411097  RH  036%=      5-min Rain = 0
KAM1 250105Z 07007KT 04/M10 A3018 RMK A01 T00411098  RH  036%=      5-min Rain = 0
KAM1 250106Z 08008KT 04/M10 A3018 RMK A01 T00391098  RH  036%=      5-min Rain = 0
KAM1 250107Z 08008KT 04/M10 A3018 RMK A01 T00381098  RH  036%=      5-min Rain = 0
KAM1 250108Z 08008KT 04/M10 A3018 RMK A01 T00381098  RH  037%=      5-min Rain = 0
KAM1 250109Z 08008KT 04/M10 A3018 RMK A01 T00371097  RH  037%=      5-min Rain = 0
KAM1 250110Z 07008KT 04/M10 A3018 RMK A01 T00371096  RH  037%=      5-min Rain = 0
KAM1 250111Z 07008KT 04/M10 A3018 RMK A01 T00371096  RH  037%=      5-min Rain = 0
KAM1 250112Z 07008KT 04/M10 A3018 RMK A01 T00361096  RH  037%=      5-min Rain = 0
KAM1 250113Z 08008KT 04/M10 A3018 RMK A01 T00361096  RH  038%=      5-min Rain = 0
KAM1 250114Z 07008KT 04/M10 A3018 RMK A01 T00351096  RH  038%=      5-min Rain = 0
KAM1 250115Z 07008KT 04/M10 A3018 RMK A01 T00351095  RH  038%=      5-min Rain = 0
KAM1 250116Z 07008KT 03/M10 A3018 RMK A01 T00341095  RH  038%=      5-min Rain = 0
KAM1 250117Z 07008KT 03/M10 A3018 RMK A01 T00331095  RH  038%=      5-min Rain = 0
KAM1 250118Z 07008KT 03/M10 A3018 RMK A01 T00331095  RH  039%=      5-min Rain = 0
KAM1 250119Z 07008KT 03/M09 A3018 RMK A01 T00331094  RH  039%=      5-min Rain = 0
KAM1 250120Z 07009KT 03/M09 A3018 RMK A01 T00331094  RH  039%=      5-min Rain = 0
KAM1 250121Z 07008KT 03/M09 A3018 RMK A01 T00321094  RH  039%=      5-min Rain = 0
KAM1 250122Z 07009KT 03/M09 A3018 RMK A01 T00321094  RH  039%=      5-min Rain = 0
KAM1 250123Z 07009KT 03/M09 A3018 RMK A01 T00331093  RH  039%=      5-min Rain = 0
KAM1 250124Z 07009KT 03/M09 A3018 RMK A01 T00331093  RH  039%=      5-min Rain = 0
KAM1 250125Z 07009KT 03/M09 A3018 RMK A01 T00341092  RH  039%=      5-min Rain = 0
KAM1 250126Z 07009KT 03/M09 A3018 RMK A01 T00341092  RH  039%=      5-min Rain = 0
KAM1 250127Z 08009KT 03/M09 A3018 RMK A01 T00341092  RH  039%=      5-min Rain = 0
KAM1 250128Z 08008KT 03/M09 A3019 RMK A01 T00341092  RH  039%=      5-min Rain = 0
KAM1 250129Z 08008KT 04/M09 A3019 RMK A01 T00351092  RH  039%=      5-min Rain = 0
KAM1 250130Z 08008KT 04/M09 A3019 RMK A01 T00351093  RH  039%=      5-min Rain = 0
KAM1 250131Z 08008KT 03/M09 A3019 RMK A01 T00341093  RH  039%=      5-min Rain = 0
KAM1 250132Z 08008KT 03/M09 A3019 RMK A01 T00331093  RH  039%=      5-min Rain = 0
KAM1 250133Z 08009KT 03/M09 A3019 RMK A01 T00311094  RH  039%=      5-min Rain = 0
KAM1 250134Z 08008KT 03/M09 A3019 RMK A01 T00301094  RH  040%=      5-min Rain = 0
KAM1 250135Z 08008KT 03/M09 A3019 RMK A01 T00291094  RH  040%=      5-min Rain = 0
KAM1 250136Z 08008KT 03/M09 A3019 RMK A01 T00291093  RH  040%=      5-min Rain = 0
KAM1 250137Z 08008KT 03/M09 A3019 RMK A01 T00281093  RH  040%=      5-min Rain = 0
KAM1 250138Z 08008KT 03/M09 A3019 RMK A01 T00271093  RH  041%=      5-min Rain = 0
KAM1 250139Z 08008KT 03/M09 A3019 RMK A01 T00271093  RH  041%=      5-min Rain = 0
KAM1 250140Z 08008KT 03/M09 A3019 RMK A01 T00261093  RH  041%=      5-min Rain = 0
KAM1 250141Z 08008KT 03/M09 A3019 RMK A01 T00261094  RH  041%=      5-min Rain = 0
KAM1 250142Z 08008KT 03/M09 A3019 RMK A01 T00251094  RH  041%=      5-min Rain = 0
KAM1 250143Z 08008KT 03/M09 A3019 RMK A01 T00251094  RH  041%=      5-min Rain = 0
KAM1 250144Z 08009KT 02/M09 A3019 RMK A01 T00241093  RH  041%=      5-min Rain = 0
KAM1 250145Z 08009KT 02/M09 A3019 RMK A01 T00241093  RH  042%=      5-min Rain = 0
KAM1 250146Z 08009KT 02/M09 A3019 RMK A01 T00241093  RH  042%=      5-min Rain = 0
KAM1 250147Z 08009KT 02/M09 A3019 RMK A01 T00231093  RH  042%=      5-min Rain = 0
KAM1 250148Z 08009KT 02/M09 A3019 RMK A01 T00231093  RH  042%=      5-min Rain = 0
KAM1 250149Z 08009KT 02/M09 A3019 RMK A01 T00221093  RH  042%=      5-min Rain = 0
KAM1 250150Z 08009KT 02/M09 A3019 RMK A01 T00221093  RH  042%=      5-min Rain = 0
KAM1 250151Z 08009KT 02/M09 A3019 RMK A01 T00221093  RH  042%=      5-min Rain = 0
KAM1 250152Z 08009KT 02/M09 A3019 RMK A01 T00221092  RH  042%=      5-min Rain = 0
KAM1 250153Z 08009KT 02/M09 A3019 RMK A01 T00231092  RH  042%=      5-min Rain = 0
KAM1 250154Z 08009KT 02/M09 A3019 RMK A01 T00231092  RH  042%=      5-min Rain = 0
KAM1 250155Z 08009KT 02/M09 A3019 RMK A01 T00231092  RH  042%=      5-min Rain = 0
KAM1 250156Z 08009KT 02/M09 A3019 RMK A01 T00231092  RH  042%=      5-min Rain = 0
KAM1 250157Z 08009KT 02/M09 A3019 RMK A01 T00231092  RH  042%=      5-min Rain = 0
KAM1 250158Z 08009KT 02/M09 A3019 RMK A01 T00231093  RH  042%=      5-min Rain = 0
KAM1 250159Z 08009KT 02/M09 A3019 RMK A01 T00231092  RH  042%=      5-min Rain = 0
KAM1 250200Z 08009KT 02/M09 A3019 RMK A01 T00231093  RH  042%=      5-min Rain = 0
KAM1 250201Z 08009KT 02/M09 A3019 RMK A01 T00221093  RH  042%=      5-min Rain = 0
KAM1 250202Z 08009KT 02/M09 A3019 RMK A01 T00221093  RH  042%=      5-min Rain = 0
KAM1 250203Z 08009KT 02/M09 A3019 RMK A01 T00221093  RH  042%=      5-min Rain = 0
KAM1 250204Z 08009KT 02/M09 A3019 RMK A01 T00231093  RH  042%=      5-min Rain = 0
KAM1 250205Z 08009KT 02/M09 A3019 RMK A01 T00231093  RH  042%=      5-min Rain = 0
KAM1 250206Z 08009KT 02/M09 A3019 RMK A01 T00241092  RH  042%=      5-min Rain = 0
KAM1 250207Z 08009KT 03/M09 A3019 RMK A01 T00251092  RH  042%=      5-min Rain = 0
KAM1 250208Z 08009KT 03/M09 A3019 RMK A01 T00251092  RH  042%=      5-min Rain = 0
KAM1 250209Z 08009KT 03/M09 A3019 RMK A01 T00261092  RH  042%=      5-min Rain = 0
KAM1 250210Z 08009KT 03/M09 A3019 RMK A01 T00261092  RH  041%=      5-min Rain = 0
KAM1 250211Z 08009KT 03/M09 A3019 RMK A01 T00261092  RH  041%=      5-min Rain = 0
KAM1 250212Z 08010KT 03/M09 A3019 RMK A01 T00261092  RH  041%=      5-min Rain = 0
KAM1 250213Z 08009KT 03/M09 A3019 RMK A01 T00261093  RH  041%=      5-min Rain = 0
KAM1 250214Z 08010KT 03/M09 A3019 RMK A01 T00271092  RH  041%=      5-min Rain = 0
KAM1 250215Z 08010KT 03/M09 A3019 RMK A01 T00271093  RH  041%=      5-min Rain = 0
KAM1 250216Z 08010KT 03/M09 A3019 RMK A01 T00281093  RH  041%=      5-min Rain = 0
KAM1 250217Z 08010KT 03/M09 A3019 RMK A01 T00291093  RH  040%=      5-min Rain = 0
KAM1 250218Z 08010KT 03/M09 A3019 RMK A01 T00301093  RH  040%=      5-min Rain = 0
KAM1 250219Z 08009KT 03/M09 A3019 RMK A01 T00301093  RH  040%=      5-min Rain = 0
KAM1 250220Z 09010KT 03/M09 A3019 RMK A01 T00301094  RH  040%=      5-min Rain = 0
KAM1 250221Z 08010KT 03/M09 A3019 RMK A01 T00301094  RH  040%=      5-min Rain = 0
KAM1 250222Z 08009KT 03/M09 A3019 RMK A01 T00311094  RH  040%=      5-min Rain = 0
KAM1 250223Z 08009KT 03/M09 A3019 RMK A01 T00311094  RH  039%=      5-min Rain = 0
KAM1 250224Z 08009KT 03/M09 A3019 RMK A01 T00311094  RH  039%=      5-min Rain = 0
KAM1 250225Z 08009KT 03/M09 A3019 RMK A01 T00311094  RH  039%=      5-min Rain = 0
KAM1 250226Z 08009KT 03/M09 A3019 RMK A01 T00311094  RH  039%=      5-min Rain = 0
KAM1 250227Z 08008KT 03/M09 A3019 RMK A01 T00301094  RH  040%=      5-min Rain = 0
KAM1 250228Z 08009KT 03/M09 A3019 RMK A01 T00291094  RH  040%=      5-min Rain = 0
KAM1 250229Z 08009KT 03/M09 A3019 RMK A01 T00291094  RH  040%=      5-min Rain = 0
KAM1 250230Z 08009KT 03/M09 A3019 RMK A01 T00281094  RH  040%=      5-min Rain = 0
KAM1 250231Z 08008KT 03/M09 A3019 RMK A01 T00281094  RH  040%=      5-min Rain = 0
KAM1 250232Z 08008KT 03/M09 A3019 RMK A01 T00271094  RH  040%=      5-min Rain = 0
KAM1 250233Z 08009KT 03/M09 A3019 RMK A01 T00271094  RH  041%=      5-min Rain = 0
KAM1 250234Z 08009KT 03/M09 A3019 RMK A01 T00261094  RH  041%=      5-min Rain = 0
KAM1 250235Z 08009KT 03/M09 A3019 RMK A01 T00261093  RH  041%=      5-min Rain = 0
KAM1 250236Z 09009KT 03/M09 A3018 RMK A01 T00261093  RH  041%=      5-min Rain = 0
KAM1 250237Z 09008KT 03/M09 A3018 RMK A01 T00261094  RH  041%=      5-min Rain = 0
KAM1 250238Z 09009KT 03/M09 A3018 RMK A01 T00261094  RH  041%=      5-min Rain = 0
KAM1 250239Z 09008KT 03/M09 A3018 RMK A01 T00251093  RH  041%=      5-min Rain = 0
KAM1 250240Z 09009KT 02/M09 A3018 RMK A01 T00241093  RH  042%=      5-min Rain = 0
KAM1 250241Z 09009KT 02/M09 A3018 RMK A01 T00241092  RH  042%=      5-min Rain = 0
KAM1 250242Z 09009KT 02/M09 A3019 RMK A01 T00231092  RH  042%=      5-min Rain = 0
KAM1 250243Z 09009KT 02/M09 A3019 RMK A01 T00231092  RH  042%=      5-min Rain = 0
KAM1 250244Z 09009KT 02/M09 A3019 RMK A01 T00231091  RH  042%=      5-min Rain = 0
KAM1 250245Z 09008KT 02/M09 A3019 RMK A01 T00231092  RH  043%=      5-min Rain = 0
KAM1 250246Z 09009KT 02/M09 A3019 RMK A01 T00221092  RH  043%=      5-min Rain = 0
KAM1 250247Z 09009KT 02/M09 A3019 RMK A01 T00211092  RH  043%=      5-min Rain = 0
KAM1 250248Z 09008KT 02/M09 A3019 RMK A01 T00211092  RH  043%=      5-min Rain = 0
KAM1 250249Z 09008KT 02/M09 A3019 RMK A01 T00201092  RH  043%=      5-min Rain = 0
KAM1 250250Z 09008KT 02/M09 A3019 RMK A01 T00191093  RH  043%=      5-min Rain = 0
KAM1 250251Z 09008KT 02/M09 A3019 RMK A01 T00181093  RH  044%=      5-min Rain = 0
KAM1 250252Z 09008KT 02/M09 A3019 RMK A01 T00181093  RH  044%=      5-min Rain = 0
KAM1 250253Z 09008KT 02/M09 A3019 RMK A01 T00181092  RH  044%=      5-min Rain = 0
KAM1 250254Z 09009KT 02/M09 A3019 RMK A01 T00171092  RH  044%=      5-min Rain = 0
KAM1 250255Z 09009KT 02/M09 A3019 RMK A01 T00171092  RH  044%=      5-min Rain = 0
KAM1 250256Z 09009KT 02/M09 A3019 RMK A01 T00181091  RH  044%=      5-min Rain = 0
KAM1 250257Z 09008KT 02/M09 A3019 RMK A01 T00171091  RH  044%=      5-min Rain = 0
KAM1 250258Z 09009KT 02/M09 A3019 RMK A01 T00181091  RH  044%=      5-min Rain = 0
KAM1 250259Z 09008KT 02/M09 A3019 RMK A01 T00181091  RH  044%=      5-min Rain = 0
KAM1 250300Z 09009KT 02/M09 A302 RMK A01 T00171091  RH  045%=      5-min Rain = 0
KAM1 250301Z 09009KT 02/M09 A302 RMK A01 T00171091  RH  045%=      5-min Rain = 0
KAM1 250302Z 09009KT 02/M09 A302 RMK A01 T00161091  RH  045%=      5-min Rain = 0
KAM1 250303Z 09009KT 02/M09 A302 RMK A01 T00161091  RH  045%=      5-min Rain = 0
KAM1 250304Z 09009KT 02/M09 A302 RMK A01 T00161091  RH  045%=      5-min Rain = 0
KAM1 250305Z 09009KT 02/M09 A302 RMK A01 T00161090  RH  045%=      5-min Rain = 0
KAM1 250306Z 09009KT 02/M09 A302 RMK A01 T00151090  RH  045%=      5-min Rain = 0
KAM1 250307Z 09009KT 02/M09 A302 RMK A01 T00151091  RH  045%=      5-min Rain = 0
KAM1 250308Z 09009KT 02/M09 A302 RMK A01 T00151091  RH  045%=      5-min Rain = 0
KAM1 250309Z 09009KT 02/M09 A302 RMK A01 T00151091  RH  045%=      5-min Rain = 0
KAM1 250310Z 09009KT 02/M09 A302 RMK A01 T00151091  RH  045%=      5-min Rain = 0
KAM1 250311Z 09009KT 02/M09 A302 RMK A01 T00151091  RH  045%=      5-min Rain = 0
KAM1 250312Z 09008KT 02/M09 A302 RMK A01 T00151091  RH  045%=      5-min Rain = 0
KAM1 250313Z 09009KT 02/M09 A302 RMK A01 T00161091  RH  045%=      5-min Rain = 0
KAM1 250314Z 09009KT 02/M09 A302 RMK A01 T00161091  RH  045%=      5-min Rain = 0
KAM1 250315Z 09009KT 02/M09 A302 RMK A01 T00161091  RH  045%=      5-min Rain = 0
KAM1 250316Z 09009KT 02/M09 A302 RMK A01 T00161091  RH  045%=      5-min Rain = 0
KAM1 250317Z 09009KT 02/M09 A302 RMK A01 T00161091  RH  045%=      5-min Rain = 0
KAM1 250318Z 09009KT 02/M09 A302 RMK A01 T00161091  RH  045%=      5-min Rain = 0
KAM1 250319Z 09009KT 02/M09 A302 RMK A01 T00161091  RH  045%=      5-min Rain = 0
KAM1 250320Z 09009KT 02/M09 A302 RMK A01 T00161091  RH  045%=      5-min Rain = 0
KAM1 250321Z 09009KT 02/M09 A302 RMK A01 T00161091  RH  045%=      5-min Rain = 0
KAM1 250322Z 09009KT 02/M09 A302 RMK A01 T00161091  RH  045%=      5-min Rain = 0
KAM1 250323Z 09009KT 02/M09 A302 RMK A01 T00171090  RH  045%=      5-min Rain = 0
KAM1 250324Z 09009KT 02/M09 A302 RMK A01 T00171090  RH  045%=      5-min Rain = 0
KAM1 250325Z 08009KT 02/M09 A302 RMK A01 T00171090  RH  045%=      5-min Rain = 0
KAM1 250326Z 09009KT 02/M09 A302 RMK A01 T00171090  RH  045%=      5-min Rain = 0
KAM1 250327Z 09009KT 02/M09 A302 RMK A01 T00171090  RH  045%=      5-min Rain = 0
KAM1 250328Z 09009KT 02/M09 A302 RMK A01 T00161091  RH  045%=      5-min Rain = 0
KAM1 250329Z 09009KT 02/M09 A302 RMK A01 T00161091  RH  045%=      5-min Rain = 0
KAM1 250330Z 09009KT 02/M09 A302 RMK A01 T00161090  RH  045%=      5-min Rain = 0
KAM1 250331Z 09009KT 02/M09 A302 RMK A01 T00161090  RH  045%=      5-min Rain = 0
KAM1 250332Z 09009KT 02/M09 A302 RMK A01 T00161090  RH  045%=      5-min Rain = 0
KAM1 250333Z 09009KT 02/M09 A302 RMK A01 T00161091  RH  045%=      5-min Rain = 0
KAM1 250334Z 09009KT 02/M09 A302 RMK A01 T00151091  RH  045%=      5-min Rain = 0
KAM1 250335Z 09010KT 02/M09 A302 RMK A01 T00161091  RH  045%=      5-min Rain = 0
KAM1 250336Z 09010KT 02/M09 A302 RMK A01 T00161091  RH  045%=      5-min Rain = 0
KAM1 250337Z 08010KT 02/M09 A302 RMK A01 T00181091  RH  044%=      5-min Rain = 0
KAM1 250338Z 09010KT 02/M09 A302 RMK A01 T00181091  RH  044%=      5-min Rain = 0
KAM1 250339Z 09010KT 02/M09 A302 RMK A01 T00191091  RH  044%=      5-min Rain = 0
KAM1 250340Z 08010KT 02/M09 A3021 RMK A01 T00181091  RH  044%=      5-min Rain = 0
KAM1 250341Z 09010KT 02/M09 A3021 RMK A01 T00181092  RH  044%=      5-min Rain = 0
KAM1 250342Z 09010KT 02/M09 A3021 RMK A01 T00191092  RH  044%=      5-min Rain = 0
KAM1 250343Z 08010KT 02/M09 A3021 RMK A01 T00201092  RH  043%=      5-min Rain = 0
KAM1 250344Z 09010KT 02/M09 A3021 RMK A01 T00201092  RH  043%=      5-min Rain = 0
KAM1 250345Z 09009KT 02/M09 A3021 RMK A01 T00201092  RH  043%=      5-min Rain = 0
KAM1 250346Z 09010KT 02/M09 A3021 RMK A01 T00191093  RH  043%=      5-min Rain = 0
KAM1 250347Z 09010KT 02/M09 A3021 RMK A01 T00181093  RH  043%=      5-min Rain = 0
KAM1 250348Z 09010KT 02/M09 A3021 RMK A01 T00191093  RH  043%=      5-min Rain = 0
KAM1 250349Z 09010KT 02/M09 A3021 RMK A01 T00191093  RH  043%=      5-min Rain = 0
KAM1 250350Z 09011KT 02/M09 A3021 RMK A01 T00191093  RH  043%=      5-min Rain = 0
KAM1 250351Z 09011KT 02/M09 A3021 RMK A01 T00191092  RH  043%=      5-min Rain = 0
KAM1 250352Z 09010KT 02/M09 A3021 RMK A01 T00191093  RH  043%=      5-min Rain = 0
KAM1 250353Z 09010KT 02/M09 A3021 RMK A01 T00191093  RH  043%=      5-min Rain = 0
KAM1 250354Z 09010KT 02/M09 A3021 RMK A01 T00191093  RH  043%=      5-min Rain = 0
KAM1 250355Z 09010KT 02/M09 A3021 RMK A01 T00181092  RH  044%=      5-min Rain = 0
KAM1 250356Z 09010KT 02/M09 A3021 RMK A01 T00181093  RH  044%=      5-min Rain = 0
KAM1 250357Z 08011KT 02/M09 A3021 RMK A01 T00171093  RH  044%=      5-min Rain = 0
KAM1 250358Z 08010KT 02/M09 A3021 RMK A01 T00171093  RH  044%=      5-min Rain = 0
KAM1 250359Z 08010KT 02/M09 A3021 RMK A01 T00171093  RH  044%=      5-min Rain = 0
KAM1 250400Z 09010KT 02/M09 A3021 RMK A01 T00171092  RH  044%=      5-min Rain = 0
KAM1 250401Z 08009KT 02/M09 A3021 RMK A01 T00171093  RH  044%=      5-min Rain = 0
KAM1 250402Z 09010KT 02/M09 A3021 RMK A01 T00161093  RH  044%=      5-min Rain = 0
KAM1 250403Z 09010KT 02/M09 A3021 RMK A01 T00151093  RH  044%=      5-min Rain = 0
KAM1 250404Z 08011KT 02/M09 A3021 RMK A01 T00151093  RH  044%=      5-min Rain = 0
KAM1 250405Z 08011KT 02/M09 A3021 RMK A01 T00161093  RH  044%=      5-min Rain = 0
KAM1 250406Z 09011KT 02/M09 A3021 RMK A01 T00161093  RH  044%=      5-min Rain = 0
KAM1 250407Z 09009KT 02/M09 A3021 RMK A01 T00161093  RH  044%=      5-min Rain = 0
KAM1 250408Z 08009KT 02/M09 A3021 RMK A01 T00161094  RH  044%=      5-min Rain = 0
KAM1 250409Z 08010KT 01/M09 A3021 RMK A01 T00141094  RH  044%=      5-min Rain = 0
KAM1 250410Z 08010KT 01/M10 A3021 RMK A01 T00141095  RH  044%=      5-min Rain = 0
KAM1 250411Z 08010KT 01/M10 A3021 RMK A01 T00131095  RH  044%=      5-min Rain = 0
KAM1 250412Z 08010KT 01/M10 A3021 RMK A01 T00131095  RH  045%=      5-min Rain = 0
KAM1 250413Z 08010KT 01/M09 A3021 RMK A01 T00131094  RH  045%=      5-min Rain = 0
KAM1 250414Z 08011KT 01/M10 A3021 RMK A01 T00121095  RH  045%=      5-min Rain = 0
KAM1 250415Z 08010KT 01/M10 A3021 RMK A01 T00111095  RH  045%=      5-min Rain = 0
KAM1 250416Z 08010KT 01/M10 A3021 RMK A01 T00111095  RH  045%=      5-min Rain = 0
KAM1 250417Z 08010KT 01/M10 A3021 RMK A01 T00111095  RH  045%=      5-min Rain = 0
KAM1 250418Z 08010KT 01/M10 A3021 RMK A01 T00111095  RH  045%=      5-min Rain = 0
KAM1 250419Z 08010KT 01/M10 A3021 RMK A01 T00101095  RH  045%=      5-min Rain = 0
KAM1 250420Z 08010KT 01/M10 A3021 RMK A01 T00091095  RH  046%=      5-min Rain = 0
KAM1 250421Z 08010KT 01/M10 A3021 RMK A01 T00091095  RH  046%=      5-min Rain = 0
KAM1 250422Z 08009KT 01/M10 A3022 RMK A01 T00081095  RH  046%=      5-min Rain = 0
KAM1 250423Z 08009KT 01/M10 A3022 RMK A01 T00071095  RH  046%=      5-min Rain = 0
KAM1 250424Z 08009KT 01/M10 A3022 RMK A01 T00071095  RH  047%=      5-min Rain = 0
KAM1 250425Z 07009KT 01/M09 A3022 RMK A01 T00071094  RH  047%=      5-min Rain = 0
KAM1 250426Z 08009KT 01/M09 A3022 RMK A01 T00061094  RH  047%=      5-min Rain = 0
KAM1 250427Z 08009KT 01/M09 A3022 RMK A01 T00051094  RH  047%=      5-min Rain = 0
KAM1 250428Z 08009KT 00/M09 A3022 RMK A01 T00041094  RH  048%=      5-min Rain = 0
KAM1 250429Z 08009KT 00/M09 A3022 RMK A01 T00041094  RH  048%=      5-min Rain = 0
KAM1 250430Z 07009KT 00/M09 A3022 RMK A01 T00031094  RH  048%=      5-min Rain = 0
KAM1 250431Z 08009KT 00/M09 A3022 RMK A01 T00021094  RH  048%=      5-min Rain = 0
KAM1 250432Z 08009KT 00/M09 A3022 RMK A01 T00011094  RH  049%=      5-min Rain = 0
KAM1 250433Z 08009KT 00/M09 A3022 RMK A01 T00011094  RH  049%=      5-min Rain = 0
KAM1 250434Z 08009KT 00/09 A3022 RMK A01 T00000-94  RH  049%=      5-min Rain = 0
KAM1 250435Z 08009KT 00/09 A3022 RMK A01 T00-00-93  RH  049%=      5-min Rain = 0
KAM1 250436Z 07009KT 00/09 A3022 RMK A01 T00-00-93  RH  050%=      5-min Rain = 0
KAM1 250437Z 08009KT M00/M09 A3022 RMK A01 T10011093  RH  050%=      5-min Rain = 0
KAM1 250438Z 07009KT M00/M09 A3022 RMK A01 T10011093  RH  050%=      5-min Rain = 0
KAM1 250439Z 07009KT M00/M09 A3022 RMK A01 T10011093  RH  050%=      5-min Rain = 0
KAM1 250440Z 07009KT M00/M09 A3022 RMK A01 T10011093  RH  050%=      5-min Rain = 0
KAM1 250441Z 07009KT M00/M09 A3022 RMK A01 T10011092  RH  050%=      5-min Rain = 0
KAM1 250442Z 07009KT M00/M09 A3022 RMK A01 T10021093  RH  050%=      5-min Rain = 0
KAM1 250443Z 07009KT M00/M09 A3022 RMK A01 T10011092  RH  050%=      5-min Rain = 0
KAM1 250444Z 07009KT M00/M09 A3022 RMK A01 T10011092  RH  050%=      5-min Rain = 0
KAM1 250445Z 07009KT M00/M09 A3022 RMK A01 T10011092  RH  050%=      5-min Rain = 0
KAM1 250446Z 07009KT 00/09 A3022 RMK A01 T00000-92  RH  050%=      5-min Rain = 0
KAM1 250447Z 07009KT 00/M09 A3022 RMK A01 T00011092  RH  050%=      5-min Rain = 0
KAM1 250448Z 07009KT 00/M09 A3022 RMK A01 T00011092  RH  050%=      5-min Rain = 0
KAM1 250449Z 07010KT 00/09 A3022 RMK A01 T00000-92  RH  050%=      5-min Rain = 0
KAM1 250450Z 07010KT 00/09 A3022 RMK A01 T00000-92  RH  050%=      5-min Rain = 0
KAM1 250451Z 07010KT 00/09 A3022 RMK A01 T00-00-91  RH  050%=      5-min Rain = 0
KAM1 250452Z 07010KT 00/09 A3022 RMK A01 T00-00-91  RH  050%=      5-min Rain = 0
KAM1 250453Z 07011KT 00/09 A3022 RMK A01 T00000-91  RH  050%=      5-min Rain = 0
KAM1 250454Z 08010KT 00/09 A3022 RMK A01 T00-00-92  RH  050%=      5-min Rain = 0
KAM1 250455Z 07010KT 00/09 A3022 RMK A01 T00000-92  RH  050%=      5-min Rain = 0
KAM1 250456Z 07010KT 00/09 A3022 RMK A01 T00000-92  RH  050%=      5-min Rain = 0
KAM1 250457Z 07010KT 00/M09 A3022 RMK A01 T00011091  RH  050%=      5-min Rain = 0
KAM1 250458Z 07010KT 00/M09 A3022 RMK A01 T00011091  RH  050%=      5-min Rain = 0
KAM1 250459Z 07010KT 00/09 A3022 RMK A01 T00000-92  RH  050%=      5-min Rain = 0
KAM1 250500Z 07009KT 00/09 A3022 RMK A01 T00-00-91  RH  050%=      5-min Rain = 0
KAM1 250501Z 08010KT M00/M09 A3022 RMK A01 T10011092  RH  050%=      5-min Rain = 0
KAM1 250502Z 08010KT M00/M09 A3022 RMK A01 T10011092  RH  051%=      5-min Rain = 0
KAM1 250503Z 08010KT M00/M09 A3022 RMK A01 T10011091  RH  051%=      5-min Rain = 0
KAM1 250504Z 08010KT M00/M09 A3022 RMK A01 T10011091  RH  051%=      5-min Rain = 0
KAM1 250505Z 08010KT M00/M09 A3022 RMK A01 T10011091  RH  051%=      5-min Rain = 0
KAM1 250506Z 08009KT M00/M09 A3022 RMK A01 T10021091  RH  051%=      5-min Rain = 0
KAM1 250507Z 07009KT M00/M09 A3022 RMK A01 T10031092  RH  051%=      5-min Rain = 0
KAM1 250508Z 07009KT M00/M09 A3022 RMK A01 T10031092  RH  051%=      5-min Rain = 0
KAM1 250509Z 07009KT M00/M09 A3022 RMK A01 T10041092  RH  051%=      5-min Rain = 0
KAM1 250510Z 07009KT M00/M09 A3022 RMK A01 T10041092  RH  052%=      5-min Rain = 0
KAM1 250511Z 08008KT M00/M09 A3022 RMK A01 T10041091  RH  052%=      5-min Rain = 0
KAM1 250512Z 07009KT M00/M09 A3022 RMK A01 T10041091  RH  052%=      5-min Rain = 0
KAM1 250513Z 08009KT M01/M09 A3021 RMK A01 T10051091  RH  052%=      5-min Rain = 0
KAM1 250514Z 07010KT M01/M09 A3021 RMK A01 T10051091  RH  052%=      5-min Rain = 0
KAM1 250515Z 08009KT M01/M09 A3021 RMK A01 T10051091  RH  052%=      5-min Rain = 0
KAM1 250516Z 08009KT M01/M09 A3021 RMK A01 T10051091  RH  052%=      5-min Rain = 0
KAM1 250517Z 08010KT M01/M09 A3021 RMK A01 T10051091  RH  052%=      5-min Rain = 0
KAM1 250518Z 08009KT M01/M09 A3021 RMK A01 T10051091  RH  052%=      5-min Rain = 0
KAM1 250519Z 08009KT M01/M09 A3021 RMK A01 T10051091  RH  052%=      5-min Rain = 0
KAM1 250520Z 08009KT M01/M09 A3021 RMK A01 T10061091  RH  052%=      5-min Rain = 0
KAM1 250521Z 08009KT M01/M09 A3021 RMK A01 T10061091  RH  053%=      5-min Rain = 0
KAM1 250522Z 08009KT M01/M09 A3021 RMK A01 T10061091  RH  053%=      5-min Rain = 0
KAM1 250523Z 08009KT M01/M09 A3021 RMK A01 T10071091  RH  053%=      5-min Rain = 0
KAM1 250524Z 08009KT M01/M09 A3021 RMK A01 T10071091  RH  053%=      5-min Rain = 0
KAM1 250525Z 08009KT M01/M09 A3021 RMK A01 T10071091  RH  053%=      5-min Rain = 0
KAM1 250526Z 08009KT M01/M09 A3021 RMK A01 T10071091  RH  053%=      5-min Rain = 0
KAM1 250527Z 08009KT M01/M09 A3021 RMK A01 T10071091  RH  053%=      5-min Rain = 0
KAM1 250528Z 08009KT M01/M09 A3021 RMK A01 T10061090  RH  053%=      5-min Rain = 0
KAM1 250529Z 08009KT M01/M09 A3021 RMK A01 T10061091  RH  053%=      5-min Rain = 0
KAM1 250530Z 09010KT M01/M09 A3021 RMK A01 T10061091  RH  053%=      5-min Rain = 0
KAM1 250531Z 09010KT M01/M09 A3021 RMK A01 T10051091  RH  053%=      5-min Rain = 0
KAM1 250532Z 09011KT M01/M09 A3021 RMK A01 T10051091  RH  052%=      5-min Rain = 0
KAM1 250533Z 09010KT M00/M09 A3021 RMK A01 T10041090  RH  052%=      5-min Rain = 0
KAM1 250534Z 09011KT M00/M09 A3021 RMK A01 T10031091  RH  052%=      5-min Rain = 0
KAM1 250535Z 09011KT M00/M09 A3021 RMK A01 T10031091  RH  051%=      5-min Rain = 0
KAM1 250536Z 09010KT M00/M09 A3021 RMK A01 T10021091  RH  051%=      5-min Rain = 0
KAM1 250537Z 09010KT M00/M09 A3021 RMK A01 T10011091  RH  051%=      5-min Rain = 0
KAM1 250538Z 09011KT M00/M09 A3021 RMK A01 T10021091  RH  051%=      5-min Rain = 0
KAM1 250539Z 09011KT M00/M09 A3021 RMK A01 T10021091  RH  051%=      5-min Rain = 0
KAM1 250540Z 09009KT M00/M09 A3021 RMK A01 T10021091  RH  051%=      5-min Rain = 0
KAM1 250541Z 10009KT M00/M09 A3021 RMK A01 T10021092  RH  051%=      5-min Rain = 0
KAM1 250542Z 10010KT M00/M09 A3021 RMK A01 T10021092  RH  051%=      5-min Rain = 0
KAM1 250543Z 10009KT M00/M09 A3021 RMK A01 T10021092  RH  051%=      5-min Rain = 0
KAM1 250544Z 09009KT M00/M09 A3021 RMK A01 T10031092  RH  051%=      5-min Rain = 0
KAM1 250545Z 10009KT M00/M09 A3021 RMK A01 T10031092  RH  051%=      5-min Rain = 0
KAM1 250546Z 10008KT M00/M09 A3021 RMK A01 T10041092  RH  051%=      5-min Rain = 0
KAM1 250547Z 10008KT M01/M09 A3021 RMK A01 T10051092  RH  052%=      5-min Rain = 0
KAM1 250548Z 10008KT M01/M09 A3021 RMK A01 T10061093  RH  052%=      5-min Rain = 0
KAM1 250549Z 10008KT M01/M09 A3021 RMK A01 T10071093  RH  052%=      5-min Rain = 0
KAM1 250550Z 10008KT M01/M09 A3021 RMK A01 T10081093  RH  052%=      5-min Rain = 0
KAM1 250551Z 11008KT M01/M09 A3021 RMK A01 T10101094  RH  053%=      5-min Rain = 0
KAM1 250552Z 11007KT M01/M09 A3021 RMK A01 T10111094  RH  053%=      5-min Rain = 0
KAM1 250553Z 11008KT M01/M09 A3021 RMK A01 T10111093  RH  054%=      5-min Rain = 0
KAM1 250554Z 11008KT M01/M09 A3021 RMK A01 T10111093  RH  054%=      5-min Rain = 0
KAM1 250555Z 11008KT M01/M09 A302 RMK A01 T10121093  RH  054%=      5-min Rain = 0
KAM1 250556Z 11007KT M01/M09 A302 RMK A01 T10121093  RH  054%=      5-min Rain = 0
KAM1 250557Z 11007KT M01/M09 A3021 RMK A01 T10141094  RH  055%=      5-min Rain = 0
KAM1 250558Z 12007KT M02/M10 A3021 RMK A01 T10161095  RH  055%=      5-min Rain = 0
KAM1 250559Z 12007KT M02/M10 A3021 RMK A01 T10181095  RH  056%=      5-min Rain = 0

Page generated in 0.0653 seconds.